Wetterdaten: Montag, 23.11.2020
Datum Zeit Temp. Aussen Temp. o. S. Temp +5cm Feuchte Auss Luftdruck Regen Sonnenschein Regendauer Solar Windben Empfang
23.11.2020 00:00 8,2 C 7,2 C 7,2 C 99 % 1026,4 hPa 0,0 l/m 0 min 0 min 0 W/m 0,0 km/h (0 Bft) 95,65 %
23.11.2020 00:02 8,2 C 7,2 C 7,2 C 99 % 1026,4 hPa 0,0 l/m 0 min 0 min 0 W/m 0,0 km/h (0 Bft) 95,24 %
23.11.2020 00:04 8,1 C 7,2 C 7,2 C 99 % 1026,4 hPa 0,0 l/m 0 min 0 min 0 W/m 0,0 km/h (0 Bft) 95,74 %
23.11.2020 00:07 8,1 C 7,2 C 7,2 C 99 % 1026,4 hPa 0,0 l/m 0 min 0 min 0 W/m 0,0 km/h (0 Bft) 95,71 %
23.11.2020 00:08 8,1 C 7,2 C 7,2 C 99 % 1026,4 hPa 0,0 l/m 0 min 0 min 0 W/m 0,0 km/h (0 Bft) 96,30 %
23.11.2020 00:10 8,1 C 7,2 C 7,2 C 99 % 1026,4 hPa 0,0 l/m 0 min 0 min 0 W/m 0,0 km/h (0 Bft) 93,48 %
23.11.2020 00:12 8,1 C 7,2 C 7,2 C 99 % 1026,4 hPa 0,0 l/m 0 min 0 min 0 W/m 0,0 km/h (0 Bft) 95,74 %
23.11.2020 00:14 8,1 C 7,2 C 7,2 C 99 % 1026,4 hPa 0,0 l/m 0 min 0 min 0 W/m 0,0 km/h (0 Bft) 95,74 %
23.11.2020 00:16 8,1 C 7,2 C 7,2 C 99 % 1026,4 hPa 0,0 l/m 0 min 0 min 0 W/m 0,0 km/h (0 Bft) 95,74 %
23.11.2020 00:18 8,1 C 7,2 C 7,2 C 99 % 1026,4 hPa 0,0 l/m 0 min 0 min 0 W/m 0,0 km/h (0 Bft) 95,74 %
23.11.2020 00:20 8,1 C 7,2 C 7,2 C 99 % 1026,3 hPa 0,0 l/m 0 min 0 min 0 W/m 0,0 km/h (0 Bft) 97,87 %
23.11.2020 00:22 8,1 C 7,2 C 7,2 C 99 % 1026,4 hPa 0,0 l/m 0 min 0 min 0 W/m 0,0 km/h (0 Bft) 97,83 %
23.11.2020 00:24 8,1 C 7,2 C 7,2 C 99 % 1026,3 hPa 0,0 l/m 0 min 0 min 0 W/m 0,0 km/h (0 Bft) 97,87 %
23.11.2020 00:26 8,1 C 7,2 C 7,2 C 99 % 1026,3 hPa 0,0 l/m 0 min 0 min 0 W/m 0,0 km/h (0 Bft) 97,87 %
23.11.2020 00:28 8,1 C 7,2 C 7,2 C 99 % 1026,3 hPa 0,0 l/m 0 min 0 min 0 W/m 0,0 km/h (0 Bft) 97,87 %
23.11.2020 00:30 8,1 C 7,2 C 7,2 C 99 % 1026,3 hPa 0,0 l/m 0 min 0 min 0 W/m 0,0 km/h (0 Bft) 97,87 %
23.11.2020 00:32 8,1 C 7,2 C 7,2 C 99 % 1026,4 hPa 0,0 l/m 0 min 0 min 0 W/m 0,0 km/h (0 Bft) 97,87 %
23.11.2020 00:34 8,1 C 7,2 C 7,2 C 99 % 1026,3 hPa 0,0 l/m 0 min 0 min 0 W/m 0,0 km/h (0 Bft) 97,87 %
23.11.2020 00:36 8,0 C 7,2 C 7,2 C 99 % 1026,4 hPa 0,0 l/m 0 min 0 min 0 W/m 0,0 km/h (0 Bft) 97,87 %
23.11.2020 00:38 8,0 C 7,2 C 7,2 C 99 % 1026,4 hPa 0,0 l/m 0 min 0 min 0 W/m 0,0 km/h (0 Bft) 93,48 %
23.11.2020 00:40 8,0 C 7,2 C 7,2 C 99 % 1026,4 hPa 0,0 l/m 0 min 0 min 0 W/m 0,0 km/h (0 Bft) 95,74 %
23.11.2020 00:42 8,0 C 7,2 C 7,2 C 99 % 1026,4 hPa 0,0 l/m 0 min 0 min 0 W/m 0,0 km/h (0 Bft) 97,87 %
23.11.2020 00:44 8,0 C 7,2 C 7,2 C 99 % 1026,4 hPa 0,0 l/m 0 min 0 min 0 W/m 0,0 km/h (0 Bft) 97,87 %
23.11.2020 00:46 8,0 C 7,2 C 7,2 C 99 % 1026,5 hPa 0,0 l/m 0 min 0 min 0 W/m 0,0 km/h (0 Bft) 95,74 %
23.11.2020 00:48 8,0 C 7,2 C 7,2 C 99 % 1026,5 hPa 0,0 l/m 0 min 0 min 0 W/m 0,0 km/h (0 Bft) 95,74 %
23.11.2020 00:50 8,0 C 7,2 C 7,2 C 99 % 1026,5 hPa 0,0 l/m 0 min 0 min 0 W/m 6,4 km/h (2 Bft) 97,78 %
23.11.2020 00:52 8,0 C 7,2 C 7,2 C 99 % 1026,5 hPa 0,0 l/m 0 min 0 min 0 W/m 0,0 km/h (0 Bft) 95,74 %
23.11.2020 00:54 8,0 C 7,2 C 7,2 C 99 % 1026,5 hPa 0,0 l/m 0 min 0 min 0 W/m 0,0 km/h (0 Bft) 97,87 %
23.11.2020 00:56 8,0 C 7,2 C 7,2 C 99 % 1026,5 hPa 0,0 l/m 0 min 0 min 0 W/m 6,4 km/h (2 Bft) 95,65 %
23.11.2020 00:58 8,0 C 7,2 C 7,2 C 99 % 1026,5 hPa 0,0 l/m 0 min 0 min 0 W/m 6,4 km/h (2 Bft) 97,87 %
23.11.2020 01:00 8,0 C 7,2 C 7,2 C 99 % 1026,5 hPa 0,0 l/m 0 min 0 min 0 W/m 3,2 km/h (1 Bft) 95,74 %
23.11.2020 01:02 8,0 C 7,2 C 7,2 C 99 % 1026,6 hPa 0,0 l/m 0 min 0 min 0 W/m 12,9 km/h (3 Bft) 97,87 %
23.11.2020 01:04 8,0 C 7,2 C 7,2 C 99 % 1026,5 hPa 0,0 l/m 0 min 0 min 0 W/m 3,2 km/h (1 Bft) 95,74 %
23.11.2020 01:06 8,0 C 7,2 C 7,2 C 99 % 1026,5 hPa 0,0 l/m 0 min 0 min 0 W/m 12,9 km/h (3 Bft) 95,74 %
23.11.2020 01:08 8,0 C 7,2 C 7,2 C 99 % 1026,5 hPa 0,0 l/m 0 min 0 min 0 W/m 6,4 km/h (2 Bft) 95,65 %
23.11.2020 01:10 7,9 C 7,2 C 7,2 C 99 % 1026,5 hPa 0,0 l/m 0 min 0 min 0 W/m 6,4 km/h (2 Bft) 93,62 %
23.11.2020 01:12 8,0 C 7,2 C 7,2 C 99 % 1026,5 hPa 0,0 l/m 0 min 0 min 0 W/m 3,2 km/h (1 Bft) 91,49 %
23.11.2020 01:14 8,0 C 7,2 C 7,2 C 99 % 1026,5 hPa 0,0 l/m 0 min 0 min 0 W/m 6,4 km/h (2 Bft) 95,74 %
23.11.2020 01:16 7,9 C 7,2 C 7,2 C 99 % 1026,5 hPa 0,0 l/m 0 min 0 min 0 W/m 3,2 km/h (1 Bft) 97,87 %
23.11.2020 01:18 7,9 C 7,2 C 7,2 C 99 % 1026,5 hPa 0,0 l/m 0 min 0 min 0 W/m 3,2 km/h (1 Bft) 100,00 %
23.11.2020 01:20 7,9 C 7,2 C 7,2 C 99 % 1026,5 hPa 0,0 l/m 0 min 0 min 0 W/m 0,0 km/h (0 Bft) 95,65 %
23.11.2020 01:22 7,9 C 7,2 C 7,2 C 99 % 1026,5 hPa 0,0 l/m 0 min 0 min 0 W/m 3,2 km/h (1 Bft) 97,87 %
23.11.2020 01:24 7,9 C 7,2 C 7,2 C 99 % 1026,5 hPa 0,0 l/m 0 min 0 min 0 W/m 0,0 km/h (0 Bft) 95,74 %
23.11.2020 01:26 7,9 C 7,2 C 7,2 C 99 % 1026,5 hPa 0,0 l/m 0 min 0 min 0 W/m 0,0 km/h (0 Bft) 97,87 %
23.11.2020 01:28 7,9 C 7,2 C 7,2 C 99 % 1026,6 hPa 0,0 l/m 0 min 0 min 0 W/m 0,0 km/h (0 Bft) 97,87 %
23.11.2020 01:30 7,9 C 7,2 C 7,2 C 99 % 1026,7 hPa 0,0 l/m 0 min 0 min 0 W/m 0,0 km/h (0 Bft) 97,87 %
23.11.2020 01:32 7,9 C 7,2 C 7,2 C 99 % 1026,7 hPa 0,0 l/m 0 min 0 min 0 W/m 3,2 km/h (1 Bft) 97,87 %
23.11.2020 01:34 7,9 C 7,2 C 7,2 C 99 % 1026,7 hPa 0,0 l/m 0 min 0 min 0 W/m 3,2 km/h (1 Bft) 97,87 %
23.11.2020 01:36 7,9 C 7,2 C 7,2 C 99 % 1026,7 hPa 0,0 l/m 0 min 0 min 0 W/m 0,0 km/h (0 Bft) 95,74 %
23.11.2020 01:38 7,9 C 7,2 C 7,2 C 99 % 1026,8 hPa 0,0 l/m 0 min 0 min 0 W/m 0,0 km/h (0 Bft) 97,87 %
23.11.2020 01:40 7,9 C 7,2 C 7,2 C 99 % 1026,8 hPa 0,0 l/m 0 min 0 min 0 W/m 3,2 km/h (1 Bft) 97,87 %
23.11.2020 01:42 7,9 C 7,2 C 7,2 C 99 % 1026,8 hPa 0,0 l/m 0 min 0 min 0 W/m 6,4 km/h (2 Bft) 97,87 %
23.11.2020 01:44 7,9 C 7,2 C 7,2 C 99 % 1026,9 hPa 0,0 l/m 0 min 0 min 0 W/m 6,4 km/h (2 Bft) 97,83 %
23.11.2020 01:46 7,9 C 7,2 C 7,2 C 99 % 1026,9 hPa 0,0 l/m 0 min 0 min 0 W/m 12,9 km/h (3 Bft) 100,00 %
23.11.2020 01:48 7,9 C 7,2 C 7,2 C 99 % 1026,8 hPa 0,0 l/m 0 min 0 min 0 W/m 9,7 km/h (2 Bft) 100,00 %
23.11.2020 01:50 7,9 C 7,2 C 7,2 C 99 % 1026,9 hPa 0,0 l/m 0 min 0 min 0 W/m 9,7 km/h (2 Bft) 100,00 %
23.11.2020 01:52 7,8 C 7,2 C 7,2 C 99 % 1026,9 hPa 0,0 l/m 0 min 0 min 0 W/m 12,9 km/h (3 Bft) 97,73 %
23.11.2020 01:54 7,8 C 6,7 C 7,2 C 99 % 1026,9 hPa 0,0 l/m 0 min 0 min 0 W/m 9,7 km/h (2 Bft) 100,00 %
23.11.2020 01:56 7,8 C 6,7 C 7,2 C 99 % 1027,0 hPa 0,0 l/m 0 min 0 min 0 W/m 12,9 km/h (3 Bft) 100,00 %
23.11.2020 01:58 7,8 C 6,7 C 7,2 C 99 % 1026,9 hPa 0,0 l/m 0 min 2 min 0 W/m 3,2 km/h (1 Bft) 100,00 %
23.11.2020 02:00 7,8 C 6,7 C 7,2 C 99 % 1026,9 hPa 0,0 l/m 0 min 0 min 0 W/m 9,7 km/h (2 Bft) 100,00 %
23.11.2020 02:02 7,8 C 6,7 C 6,7 C 99 % 1026,9 hPa 0,0 l/m 0 min 2 min 0 W/m 6,4 km/h (2 Bft) 100,00 %
23.11.2020 02:04 7,8 C 6,7 C 6,7 C 99 % 1027,0 hPa 0,0 l/m 0 min 0 min 0 W/m 9,7 km/h (2 Bft) 100,00 %
23.11.2020 02:06 7,6 C 6,7 C 6,7 C 99 % 1027,1 hPa 0,0 l/m 0 min 0 min 0 W/m 16,1 km/h (3 Bft) 100,00 %
23.11.2020 02:08 7,6 C 6,7 C 6,7 C 99 % 1027,0 hPa 0,0 l/m 0 min 0 min 0 W/m 12,9 km/h (3 Bft) 97,87 %
23.11.2020 02:10 7,6 C 6,7 C 6,7 C 99 % 1027,0 hPa 0,0 l/m 0 min 2 min 0 W/m 3,2 km/h (1 Bft) 100,00 %
23.11.2020 02:12 7,6 C 6,7 C 6,7 C 99 % 1027,0 hPa 0,0 l/m 0 min 0 min 0 W/m 3,2 km/h (1 Bft) 100,00 %
23.11.2020 02:14 7,5 C 6,7 C 6,7 C 99 % 1027,0 hPa 0,0 l/m 0 min 0 min 0 W/m 0,0 km/h (0 Bft) 100,00 %
23.11.2020 02:16 7,5 C 6,7 C 6,7 C 99 % 1027,0 hPa 0,0 l/m 0 min 0 min 0 W/m 3,2 km/h (1 Bft) 100,00 %
23.11.2020 02:18 7,5 C 6,7 C 6,7 C 99 % 1027,1 hPa 0,0 l/m 0 min 0 min 0 W/m 6,4 km/h (2 Bft) 100,00 %
23.11.2020 02:20 7,5 C 6,7 C 6,7 C 99 % 1027,1 hPa 0,0 l/m 0 min 0 min 0 W/m 0,0 km/h (0 Bft) 100,00 %
23.11.2020 02:22 7,5 C 6,7 C 6,7 C 99 % 1027,0 hPa 0,0 l/m 0 min 0 min 0 W/m 3,2 km/h (1 Bft) 95,74 %
23.11.2020 02:24 7,5 C 6,7 C 6,7 C 99 % 1027,0 hPa 0,0 l/m 0 min 0 min 0 W/m 0,0 km/h (0 Bft) 97,87 %
23.11.2020 02:26 7,5 C 6,7 C 6,7 C 99 % 1027,0 hPa 0,0 l/m 0 min 0 min 0 W/m 0,0 km/h (0 Bft) 97,87 %
23.11.2020 02:28 7,5 C 6,7 C 6,7 C 99 % 1026,9 hPa 0,2 l/m 0 min 0 min 0 W/m 0,0 km/h (0 Bft) 97,87 %
23.11.2020 02:30 7,5 C 6,7 C 6,7 C 99 % 1026,9 hPa 0,0 l/m 0 min 0 min 0 W/m 0,0 km/h (0 Bft) 97,87 %
23.11.2020 02:32 7,5 C 6,7 C 6,7 C 99 % 1026,9 hPa 0,0 l/m 0 min 0 min 0 W/m 0,0 km/h (0 Bft) 95,74 %
23.11.2020 02:34 7,5 C 6,7 C 6,7 C 99 % 1026,9 hPa 0,0 l/m 0 min 0 min 0 W/m 0,0 km/h (0 Bft) 97,87 %
23.11.2020 02:36 7,5 C 6,7 C 6,7 C 99 % 1026,9 hPa 0,0 l/m 0 min 0 min 0 W/m 0,0 km/h (0 Bft) 54,35 %
23.11.2020 02:38 7,5 C 6,7 C 6,7 C 99 % 1026,9 hPa 0,0 l/m 0 min 0 min 0 W/m 0,0 km/h (0 Bft) 97,44 %
23.11.2020 02:40 7,5 C 6,7 C 6,7 C 99 % 1026,9 hPa 0,0 l/m 0 min 0 min 0 W/m 0,0 km/h (0 Bft) 97,87 %
23.11.2020 02:42 7,5 C 6,7 C 6,7 C 99 % 1026,8 hPa 0,0 l/m 0 min 0 min 0 W/m 0,0 km/h (0 Bft) 97,83 %
23.11.2020 02:44 7,5 C 6,7 C 6,7 C 99 % 1026,8 hPa 0,0 l/m 0 min 0 min 0 W/m 0,0 km/h (0 Bft) 97,87 %
23.11.2020 02:46 7,5 C 6,7 C 6,7 C 99 % 1026,8 hPa 0,0 l/m 0 min 0 min 0 W/m 0,0 km/h (0 Bft) 97,87 %
23.11.2020 02:48 7,5 C 6,7 C 6,7 C 99 % 1026,7 hPa 0,0 l/m 0 min 0 min 0 W/m 0,0 km/h (0 Bft) 97,87 %
23.11.2020 02:50 7,5 C 6,7 C 6,7 C 99 % 1026,6 hPa 0,0 l/m 0 min 0 min 0 W/m 0,0 km/h (0 Bft) 97,87 %
23.11.2020 02:52 7,5 C 6,7 C 6,7 C 99 % 1026,7 hPa 0,0 l/m 0 min 0 min 0 W/m 0,0 km/h (0 Bft) 97,87 %
23.11.2020 02:54 7,5 C 6,7 C 6,7 C 99 % 1026,7 hPa 0,0 l/m 0 min 0 min 0 W/m 0,0 km/h (0 Bft) 97,73 %
23.11.2020 02:56 7,4 C 6,7 C 6,7 C 99 % 1026,6 hPa 0,0 l/m 0 min 0 min 0 W/m 0,0 km/h (0 Bft) 95,74 %
23.11.2020 02:58 7,4 C 6,7 C 6,7 C 99 % 1026,6 hPa 0,0 l/m 0 min 0 min 0 W/m 0,0 km/h (0 Bft) 97,87 %
23.11.2020 03:00 7,4 C 6,7 C 6,7 C 99 % 1026,6 hPa 0,0 l/m 0 min 0 min 0 W/m 3,2 km/h (1 Bft) 97,87 %
23.11.2020 03:02 7,4 C 6,7 C 6,7 C 99 % 1026,5 hPa 0,0 l/m 0 min 0 min 0 W/m 0,0 km/h (0 Bft) 97,87 %
23.11.2020 03:04 7,4 C 6,7 C 6,1 C 99 % 1026,5 hPa 0,0 l/m 0 min 0 min 0 W/m 0,0 km/h (0 Bft) 97,87 %
23.11.2020 03:06 7,4 C 6,7 C 6,7 C 99 % 1026,5 hPa 0,0 l/m 0 min 0 min 0 W/m 0,0 km/h (0 Bft) 95,65 %
23.11.2020 03:08 7,4 C 6,7 C 6,7 C 99 % 1026,5 hPa 0,0 l/m 0 min 0 min 0 W/m 0,0 km/h (0 Bft) 97,87 %
23.11.2020 03:10 7,4 C 6,7 C 6,1 C 99 % 1026,5 hPa 0,0 l/m 0 min 0 min 0 W/m 0,0 km/h (0 Bft) 97,87 %
23.11.2020 03:12 7,4 C 6,7 C 6,1 C 99 % 1026,5 hPa 0,0 l/m 0 min 0 min 0 W/m 0,0 km/h (0 Bft) 97,87 %
23.11.2020 03:14 7,4 C 6,7 C 6,1 C 99 % 1026,5 hPa 0,0 l/m 0 min 0 min 0 W/m 0,0 km/h (0 Bft) 100,00 %
23.11.2020 03:16 7,4 C 6,7 C 6,1 C 99 % 1026,6 hPa 0,0 l/m 0 min 0 min 0 W/m 0,0 km/h (0 Bft) 97,87 %
23.11.2020 03:18 7,4 C 6,7 C 6,1 C 99 % 1026,7 hPa 0,0 l/m 0 min 0 min 0 W/m 0,0 km/h (0 Bft) 100,00 %
23.11.2020 03:20 7,4 C 6,7 C 6,1 C 99 % 1026,7 hPa 0,0 l/m 0 min 0 min 0 W/m 0,0 km/h (0 Bft) 100,00 %
23.11.2020 03:22 7,4 C 6,7 C 6,1 C 99 % 1026,7 hPa 0,0 l/m 0 min 0 min 0 W/m 0,0 km/h (0 Bft) 100,00 %
23.11.2020 03:24 7,4 C 6,7 C 6,1 C 99 % 1026,7 hPa 0,0 l/m 0 min 0 min 0 W/m 0,0 km/h (0 Bft) 97,87 %
23.11.2020 03:26 7,4 C 6,7 C 6,1 C 99 % 1026,7 hPa 0,0 l/m 0 min 0 min 0 W/m 0,0 km/h (0 Bft) 97,87 %
23.11.2020 03:28 7,3 C 6,1 C 6,1 C 99 % 1026,7 hPa 0,0 l/m 0 min 0 min 0 W/m 0,0 km/h (0 Bft) 100,00 %
23.11.2020 03:30 7,3 C 6,1 C 6,1 C 99 % 1026,7 hPa 0,0 l/m 0 min 0 min 0 W/m 0,0 km/h (0 Bft) 97,83 %
23.11.2020 03:32 7,3 C 6,1 C 6,1 C 99 % 1026,7 hPa 0,0 l/m 0 min 0 min 0 W/m 0,0 km/h (0 Bft) 97,92 %
23.11.2020 03:34 7,3 C 6,1 C 6,1 C 99 % 1026,7 hPa 0,0 l/m 0 min 0 min 0 W/m 3,2 km/h (1 Bft) 97,87 %
23.11.2020 03:36 7,3 C 6,1 C 6,1 C 99 % 1026,7 hPa 0,0 l/m 0 min 0 min 0 W/m 3,2 km/h (1 Bft) 97,87 %
23.11.2020 03:38 7,3 C 6,1 C 6,1 C 98 % 1026,7 hPa 0,0 l/m 0 min 0 min 0 W/m 0,0 km/h (0 Bft) 97,87 %
23.11.2020 03:40 7,3 C 6,1 C 6,1 C 98 % 1026,7 hPa 0,0 l/m 0 min 0 min 0 W/m 0,0 km/h (0 Bft) 97,87 %
23.11.2020 03:42 7,2 C 6,1 C 6,1 C 98 % 1026,7 hPa 0,0 l/m 0 min 0 min 0 W/m 0,0 km/h (0 Bft) 97,83 %
23.11.2020 03:44 7,2 C 6,1 C 6,1 C 99 % 1026,6 hPa 0,0 l/m 0 min 0 min 0 W/m 3,2 km/h (1 Bft) 97,87 %
23.11.2020 03:46 7,2 C 6,1 C 6,1 C 99 % 1026,7 hPa 0,0 l/m 0 min 0 min 0 W/m 0,0 km/h (0 Bft) 97,87 %
23.11.2020 03:48 7,1 C 6,1 C 6,1 C 99 % 1026,7 hPa 0,0 l/m 0 min 0 min 0 W/m 3,2 km/h (1 Bft) 97,87 %
23.11.2020 03:50 7,1 C 6,1 C 6,1 C 99 % 1026,6 hPa 0,0 l/m 0 min 0 min 0 W/m 0,0 km/h (0 Bft) 97,87 %
23.11.2020 03:52 7,1 C 6,1 C 6,1 C 99 % 1026,6 hPa 0,0 l/m 0 min 0 min 0 W/m 0,0 km/h (0 Bft) 95,65 %
23.11.2020 03:54 7,1 C 6,1 C 6,1 C 99 % 1026,6 hPa 0,0 l/m 0 min 0 min 0 W/m 0,0 km/h (0 Bft) 97,87 %
23.11.2020 03:56 7,1 C 6,1 C 6,1 C 99 % 1026,6 hPa 0,0 l/m 0 min 0 min 0 W/m 0,0 km/h (0 Bft) 97,44 %
23.11.2020 03:58 7,1 C 6,1 C 6,1 C 99 % 1026,6 hPa 0,0 l/m 0 min 0 min 0 W/m 0,0 km/h (0 Bft) 97,87 %
23.11.2020 04:00 7,1 C 6,1 C 6,1 C 99 % 1026,6 hPa 0,0 l/m 0 min 0 min 0 W/m 0,0 km/h (0 Bft) 80,85 %
23.11.2020 04:02 7,1 C 6,1 C 6,1 C 99 % 1026,5 hPa 0,0 l/m 0 min 0 min 0 W/m 0,0 km/h (0 Bft) 100,00 %
23.11.2020 04:04 7,1 C 6,1 C 6,1 C 99 % 1026,6 hPa 0,0 l/m 0 min 0 min 0 W/m 0,0 km/h (0 Bft) 95,74 %
23.11.2020 04:06 7,1 C 6,1 C 6,1 C 99 % 1026,6 hPa 0,0 l/m 0 min 0 min 0 W/m 3,2 km/h (1 Bft) 97,87 %
23.11.2020 04:08 7,1 C 6,1 C 6,1 C 99 % 1026,7 hPa 0,0 l/m 0 min 0 min 0 W/m 0,0 km/h (0 Bft) 97,87 %
23.11.2020 04:10 7,1 C 6,1 C 6,1 C 99 % 1026,6 hPa 0,0 l/m 0 min 0 min 0 W/m 0,0 km/h (0 Bft) 97,87 %
23.11.2020 04:12 7,0 C 6,1 C 6,1 C 99 % 1026,5 hPa 0,0 l/m 0 min 0 min 0 W/m 0,0 km/h (0 Bft) 97,83 %
23.11.2020 04:14 7,0 C 6,1 C 6,1 C 99 % 1026,6 hPa 0,0 l/m 0 min 0 min 0 W/m 0,0 km/h (0 Bft) 95,74 %
23.11.2020 04:16 7,0 C 6,1 C 6,1 C 98 % 1026,5 hPa 0,0 l/m 0 min 0 min 0 W/m 0,0 km/h (0 Bft) 100,00 %
23.11.2020 04:18 7,0 C 6,1 C 6,1 C 98 % 1026,5 hPa 0,0 l/m 0 min 0 min 0 W/m 3,2 km/h (1 Bft) 100,00 %
23.11.2020 04:20 7,0 C 6,1 C 6,1 C 98 % 1026,5 hPa 0,0 l/m 0 min 0 min 0 W/m 0,0 km/h (0 Bft) 100,00 %
23.11.2020 04:22 7,0 C 6,1 C 5,6 C 98 % 1026,7 hPa 0,0 l/m 0 min 0 min 0 W/m 0,0 km/h (0 Bft) 97,87 %
23.11.2020 04:24 7,0 C 6,1 C 5,6 C 98 % 1026,7 hPa 0,0 l/m 0 min 0 min 0 W/m 0,0 km/h (0 Bft) 100,00 %
23.11.2020 04:26 7,0 C 6,1 C 5,6 C 98 % 1026,7 hPa 0,0 l/m 0 min 0 min 0 W/m 0,0 km/h (0 Bft) 97,87 %
23.11.2020 04:28 7,0 C 6,1 C 6,1 C 98 % 1026,7 hPa 0,0 l/m 0 min 0 min 0 W/m 0,0 km/h (0 Bft) 97,87 %
23.11.2020 04:30 7,0 C 6,1 C 6,1 C 98 % 1026,7 hPa 0,0 l/m 0 min 0 min 0 W/m 0,0 km/h (0 Bft) 100,00 %
23.11.2020 04:32 7,0 C 6,1 C 6,1 C 98 % 1026,7 hPa 0,0 l/m 0 min 0 min 0 W/m 0,0 km/h (0 Bft) 97,87 %
23.11.2020 04:34 6,9 C 6,1 C 5,6 C 98 % 1026,8 hPa 0,0 l/m 0 min 0 min 0 W/m 3,2 km/h (1 Bft) 100,00 %
23.11.2020 04:36 6,9 C 6,1 C 5,6 C 98 % 1026,8 hPa 0,0 l/m 0 min 0 min 0 W/m 3,2 km/h (1 Bft) 100,00 %
23.11.2020 04:38 6,9 C 6,1 C 5,6 C 98 % 1026,8 hPa 0,0 l/m 0 min 0 min 0 W/m 0,0 km/h (0 Bft) 100,00 %
23.11.2020 04:40 6,9 C 6,1 C 5,6 C 98 % 1026,8 hPa 0,0 l/m 0 min 0 min 0 W/m 0,0 km/h (0 Bft) 100,00 %
23.11.2020 04:42 6,9 C 6,1 C 5,6 C 98 % 1026,9 hPa 0,0 l/m 0 min 0 min 0 W/m 0,0 km/h (0 Bft) 100,00 %
23.11.2020 04:44 6,9 C 6,1 C 6,1 C 98 % 1026,8 hPa 0,0 l/m 0 min 0 min 0 W/m 0,0 km/h (0 Bft) 97,87 %
23.11.2020 04:46 6,9 C 6,1 C 6,1 C 98 % 1026,8 hPa 0,0 l/m 0 min 0 min 0 W/m 3,2 km/h (1 Bft) 100,00 %
23.11.2020 04:48 6,8 C 6,1 C 6,1 C 98 % 1026,8 hPa 0,0 l/m 0 min 0 min 0 W/m 3,2 km/h (1 Bft) 100,00 %
23.11.2020 04:50 6,8 C 6,1 C 6,1 C 98 % 1026,9 hPa 0,0 l/m 0 min 0 min 0 W/m 0,0 km/h (0 Bft) 100,00 %
23.11.2020 04:52 6,8 C 6,1 C 6,1 C 98 % 1026,8 hPa 0,0 l/m 0 min 0 min 0 W/m 0,0 km/h (0 Bft) 100,00 %
23.11.2020 04:54 6,8 C 6,1 C 6,1 C 98 % 1026,8 hPa 0,0 l/m 0 min 0 min 0 W/m 0,0 km/h (0 Bft) 97,87 %
23.11.2020 04:56 6,8 C 6,1 C 6,1 C 98 % 1026,9 hPa 0,0 l/m 0 min 0 min 0 W/m 0,0 km/h (0 Bft) 100,00 %
23.11.2020 04:58 6,8 C 6,1 C 6,1 C 98 % 1026,8 hPa 0,0 l/m 0 min 0 min 0 W/m 0,0 km/h (0 Bft) 100,00 %
23.11.2020 05:00 6,8 C 6,1 C 6,1 C 98 % 1026,8 hPa 0,0 l/m 0 min 0 min 0 W/m 0,0 km/h (0 Bft) 100,00 %
23.11.2020 05:02 6,8 C 6,1 C 6,1 C 98 % 1026,9 hPa 0,0 l/m 0 min 0 min 0 W/m 0,0 km/h (0 Bft) 100,00 %
23.11.2020 05:04 6,8 C 6,1 C 6,1 C 98 % 1026,9 hPa 0,0 l/m 0 min 0 min 0 W/m 0,0 km/h (0 Bft) 100,00 %
23.11.2020 05:06 6,8 C 6,1 C 6,1 C 98 % 1026,9 hPa 0,0 l/m 0 min 0 min 0 W/m 0,0 km/h (0 Bft) 100,00 %
23.11.2020 05:08 6,8 C 6,1 C 6,1 C 98 % 1026,9 hPa 0,0 l/m 0 min 0 min 0 W/m 0,0 km/h (0 Bft) 100,00 %
23.11.2020 05:10 6,8 C 6,1 C 6,1 C 98 % 1026,9 hPa 0,0 l/m 0 min 0 min 0 W/m 0,0 km/h (0 Bft) 97,87 %
23.11.2020 05:12 6,8 C 6,1 C 6,1 C 98 % 1026,8 hPa 0,0 l/m 0 min 0 min 0 W/m 0,0 km/h (0 Bft) 100,00 %
23.11.2020 05:14 6,8 C 6,1 C 6,1 C 98 % 1026,9 hPa 0,0 l/m 0 min 0 min 0 W/m 0,0 km/h (0 Bft) 100,00 %
23.11.2020 05:16 6,8 C 6,1 C 6,1 C 98 % 1026,9 hPa 0,0 l/m 0 min 0 min 0 W/m 0,0 km/h (0 Bft) 97,87 %
23.11.2020 05:18 6,8 C 6,1 C 6,1 C 98 % 1026,9 hPa 0,0 l/m 0 min 0 min 0 W/m 0,0 km/h (0 Bft) 97,87 %
23.11.2020 05:20 6,8 C 6,1 C 6,1 C 98 % 1026,9 hPa 0,0 l/m 0 min 0 min 0 W/m 0,0 km/h (0 Bft) 97,87 %
23.11.2020 05:22 6,8 C 6,1 C 6,1 C 98 % 1026,9 hPa 0,0 l/m 0 min 0 min 0 W/m 0,0 km/h (0 Bft) 95,74 %
23.11.2020 05:24 6,8 C 6,1 C 6,1 C 98 % 1027,0 hPa 0,0 l/m 0 min 0 min 0 W/m 0,0 km/h (0 Bft) 97,83 %
23.11.2020 05:26 6,8 C 6,1 C 6,1 C 98 % 1027,0 hPa 0,0 l/m 0 min 0 min 0 W/m 0,0 km/h (0 Bft) 97,87 %
23.11.2020 05:28 6,8 C 6,1 C 6,1 C 98 % 1027,0 hPa 0,0 l/m 0 min 0 min 0 W/m 0,0 km/h (0 Bft) 97,87 %
23.11.2020 05:30 6,8 C 6,1 C 6,1 C 98 % 1027,0 hPa 0,0 l/m 0 min 0 min 0 W/m 0,0 km/h (0 Bft) 97,87 %
23.11.2020 05:32 6,8 C 6,1 C 6,1 C 98 % 1027,0 hPa 0,0 l/m 0 min 0 min 0 W/m 0,0 km/h (0 Bft) 95,74 %
23.11.2020 05:34 6,8 C 6,1 C 6,1 C 98 % 1027,0 hPa 0,0 l/m 0 min 0 min 0 W/m 3,2 km/h (1 Bft) 100,00 %
23.11.2020 05:36 6,9 C 6,1 C 6,1 C 98 % 1027,0 hPa 0,0 l/m 0 min 0 min 0 W/m 0,0 km/h (0 Bft) 97,83 %
23.11.2020 05:38 6,9 C 6,1 C 6,1 C 98 % 1027,0 hPa 0,0 l/m 0 min 0 min 0 W/m 0,0 km/h (0 Bft) 97,87 %
23.11.2020 05:40 6,9 C 6,1 C 6,1 C 98 % 1027,0 hPa 0,0 l/m 0 min 0 min 0 W/m 0,0 km/h (0 Bft) 97,87 %
23.11.2020 05:42 6,9 C 6,1 C 6,1 C 98 % 1027,0 hPa 0,0 l/m 0 min 0 min 0 W/m 0,0 km/h (0 Bft) 97,87 %
23.11.2020 05:44 6,9 C 6,1 C 6,1 C 98 % 1027,0 hPa 0,0 l/m 0 min 0 min 0 W/m 0,0 km/h (0 Bft) 97,87 %
23.11.2020 05:46 6,9 C 6,1 C 6,1 C 98 % 1027,1 hPa 0,0 l/m 0 min 0 min 0 W/m 0,0 km/h (0 Bft) 97,87 %
23.11.2020 05:48 6,9 C 6,1 C 6,1 C 98 % 1027,1 hPa 0,0 l/m 0 min 0 min 0 W/m 0,0 km/h (0 Bft) 97,83 %
23.11.2020 05:50 6,9 C 6,1 C 6,1 C 98 % 1027,1 hPa 0,0 l/m 0 min 0 min 0 W/m 0,0 km/h (0 Bft) 93,62 %
23.11.2020 05:52 6,9 C 6,1 C 6,1 C 98 % 1027,1 hPa 0,0 l/m 0 min 0 min 0 W/m 0,0 km/h (0 Bft) 97,87 %
23.11.2020 05:54 6,9 C 6,1 C 6,1 C 98 % 1027,1 hPa 0,0 l/m 0 min 0 min 0 W/m 0,0 km/h (0 Bft) 97,87 %
23.11.2020 05:56 6,9 C 6,1 C 6,1 C 98 % 1027,1 hPa 0,0 l/m 0 min 0 min 0 W/m 0,0 km/h (0 Bft) 97,87 %
23.11.2020 05:58 6,9 C 6,1 C 6,1 C 98 % 1027,1 hPa 0,0 l/m 0 min 0 min 0 W/m 0,0 km/h (0 Bft) 97,87 %
23.11.2020 06:00 6,9 C 6,1 C 6,1 C 98 % 1027,1 hPa 0,0 l/m 0 min 0 min 0 W/m 0,0 km/h (0 Bft) 95,74 %
23.11.2020 06:02 6,9 C 6,1 C 6,1 C 98 % 1027,1 hPa 0,0 l/m 0 min 0 min 0 W/m 0,0 km/h (0 Bft) 97,87 %
23.11.2020 06:04 6,9 C 6,1 C 6,1 C 98 % 1027,2 hPa 0,0 l/m 0 min 0 min 0 W/m 0,0 km/h (0 Bft) 95,74 %
23.11.2020 06:07 6,9 C 6,1 C 6,1 C 98 % 1027,2 hPa 0,0 l/m 0 min 0 min 0 W/m 0,0 km/h (0 Bft) 95,71 %
23.11.2020 06:08 6,9 C 6,1 C 6,1 C 98 % 1027,2 hPa 0,0 l/m 0 min 0 min 0 W/m 0,0 km/h (0 Bft) 100,00 %
23.11.2020 06:10 6,9 C 6,1 C 6,1 C 98 % 1027,1 hPa 0,0 l/m 0 min 0 min 0 W/m 0,0 km/h (0 Bft) 95,74 %
23.11.2020 06:12 6,9 C 6,1 C 6,1 C 98 % 1027,2 hPa 0,0 l/m 0 min 0 min 0 W/m 0,0 km/h (0 Bft) 95,65 %
23.11.2020 06:14 6,9 C 6,1 C 6,1 C 98 % 1027,2 hPa 0,0 l/m 0 min 0 min 0 W/m 0,0 km/h (0 Bft) 97,87 %
23.11.2020 06:16 6,9 C 6,1 C 6,1 C 98 % 1027,2 hPa 0,0 l/m 0 min 0 min 0 W/m 0,0 km/h (0 Bft) 97,87 %
23.11.2020 06:18 6,9 C 6,1 C 6,1 C 98 % 1027,1 hPa 0,0 l/m 0 min 0 min 0 W/m 0,0 km/h (0 Bft) 97,87 %
23.11.2020 06:20 6,9 C 6,1 C 6,1 C 98 % 1027,2 hPa 0,0 l/m 0 min 0 min 0 W/m 0,0 km/h (0 Bft) 97,87 %
23.11.2020 06:22 6,9 C 6,1 C 6,1 C 98 % 1027,2 hPa 0,0 l/m 0 min 0 min 0 W/m 0,0 km/h (0 Bft) 97,87 %
23.11.2020 06:24 6,9 C 6,1 C 6,1 C 98 % 1027,2 hPa 0,0 l/m 0 min 0 min 0 W/m 0,0 km/h (0 Bft) 97,83 %
23.11.2020 06:26 6,9 C 6,1 C 6,1 C 98 % 1027,2 hPa 0,0 l/m 0 min 0 min 0 W/m 0,0 km/h (0 Bft) 97,87 %
23.11.2020 06:28 6,9 C 6,1 C 5,6 C 98 % 1027,3 hPa 0,0 l/m 0 min 0 min 0 W/m 0,0 km/h (0 Bft) 97,87 %
23.11.2020 06:30 6,9 C 6,1 C 5,6 C 98 % 1027,3 hPa 0,0 l/m 0 min 0 min 0 W/m 0,0 km/h (0 Bft) 97,87 %
23.11.2020 06:32 6,9 C 6,1 C 5,6 C 98 % 1027,2 hPa 0,0 l/m 0 min 0 min 0 W/m 0,0 km/h (0 Bft) 97,87 %
23.11.2020 06:34 6,9 C 5,6 C 5,6 C 98 % 1027,3 hPa 0,0 l/m 0 min 0 min 0 W/m 0,0 km/h (0 Bft) 95,65 %
23.11.2020 06:36 6,9 C 5,6 C 5,6 C 98 % 1027,4 hPa 0,0 l/m 0 min 0 min 0 W/m 0,0 km/h (0 Bft) 97,87 %
23.11.2020 06:38 6,9 C 5,6 C 5,6 C 98 % 1027,3 hPa 0,0 l/m 0 min 0 min 0 W/m 0,0 km/h (0 Bft) 97,87 %
23.11.2020 06:40 6,9 C 5,6 C 5,6 C 98 % 1027,4 hPa 0,0 l/m 0 min 0 min 0 W/m 0,0 km/h (0 Bft) 95,74 %
23.11.2020 06:42 6,9 C 5,6 C 5,6 C 98 % 1027,3 hPa 0,0 l/m 0 min 0 min 0 W/m 0,0 km/h (0 Bft) 95,74 %
23.11.2020 06:44 6,8 C 5,6 C 5,6 C 98 % 1027,4 hPa 0,0 l/m 0 min 0 min 0 W/m 0,0 km/h (0 Bft) 91,49 %
23.11.2020 06:46 6,8 C 5,6 C 5,6 C 98 % 1027,4 hPa 0,0 l/m 0 min 0 min 0 W/m 0,0 km/h (0 Bft) 95,65 %
23.11.2020 06:48 6,8 C 5,6 C 5,6 C 98 % 1027,5 hPa 0,0 l/m 0 min 0 min 0 W/m 0,0 km/h (0 Bft) 95,74 %
23.11.2020 06:50 6,8 C 6,1 C 5,6 C 98 % 1027,5 hPa 0,0 l/m 0 min 0 min 0 W/m 0,0 km/h (0 Bft) 97,87 %
23.11.2020 06:52 6,8 C 5,6 C 5,6 C 98 % 1027,5 hPa 0,0 l/m 0 min 0 min 0 W/m 0,0 km/h (0 Bft) 97,87 %
23.11.2020 06:54 6,8 C 5,6 C 5,6 C 98 % 1027,5 hPa 0,0 l/m 0 min 0 min 0 W/m 0,0 km/h (0 Bft) 97,87 %
23.11.2020 06:56 6,8 C 5,6 C 5,6 C 98 % 1027,6 hPa 0,0 l/m 0 min 0 min 0 W/m 0,0 km/h (0 Bft) 97,87 %
23.11.2020 06:58 6,7 C 5,6 C 5,6 C 98 % 1027,6 hPa 0,0 l/m 0 min 0 min 0 W/m 0,0 km/h (0 Bft) 97,83 %
23.11.2020 07:00 6,7 C 5,6 C 5,6 C 98 % 1027,6 hPa 0,0 l/m 0 min 0 min 0 W/m 0,0 km/h (0 Bft) 97,87 %
23.11.2020 07:02 6,7 C 5,6 C 5,6 C 98 % 1027,7 hPa 0,0 l/m 0 min 0 min 0 W/m 0,0 km/h (0 Bft) 97,92 %
23.11.2020 07:04 6,6 C 5,6 C 5,6 C 98 % 1027,7 hPa 0,0 l/m 0 min 0 min 0 W/m 0,0 km/h (0 Bft) 95,74 %
23.11.2020 07:06 6,6 C 5,6 C 5,6 C 98 % 1027,7 hPa 0,0 l/m 0 min 0 min 0 W/m 0,0 km/h (0 Bft) 97,92 %
23.11.2020 07:08 6,6 C 5,6 C 5,6 C 98 % 1027,6 hPa 0,0 l/m 0 min 0 min 0 W/m 0,0 km/h (0 Bft) 100,00 %
23.11.2020 07:10 6,6 C 5,6 C 5,6 C 98 % 1027,7 hPa 0,0 l/m 0 min 0 min 0 W/m 0,0 km/h (0 Bft) 97,92 %
23.11.2020 07:12 6,6 C 5,6 C 5,0 C 98 % 1027,7 hPa 0,0 l/m 0 min 0 min 0 W/m 0,0 km/h (0 Bft) 95,74 %
23.11.2020 07:14 6,6 C 5,6 C 5,6 C 98 % 1027,7 hPa 0,0 l/m 0 min 0 min 0 W/m 0,0 km/h (0 Bft) 95,74 %
23.11.2020 07:16 6,6 C 5,6 C 5,0 C 98 % 1027,8 hPa 0,0 l/m 0 min 0 min 0 W/m 0,0 km/h (0 Bft) 97,87 %
23.11.2020 07:18 6,6 C 5,6 C 5,0 C 98 % 1027,8 hPa 0,0 l/m 0 min 0 min 0 W/m 0,0 km/h (0 Bft) 97,87 %
23.11.2020 07:20 6,5 C 5,6 C 5,0 C 98 % 1027,7 hPa 0,0 l/m 0 min 0 min 0 W/m 0,0 km/h (0 Bft) 97,87 %
23.11.2020 07:22 6,5 C 5,6 C 5,0 C 98 % 1027,7 hPa 0,0 l/m 0 min 0 min 0 W/m 0,0 km/h (0 Bft) 97,83 %
23.11.2020 07:24 6,5 C 5,6 C 5,0 C 98 % 1027,7 hPa 0,0 l/m 0 min 0 min 0 W/m 0,0 km/h (0 Bft) 95,24 %
23.11.2020 07:26 6,5 C 5,6 C 5,0 C 98 % 1027,7 hPa 0,0 l/m 0 min 0 min 0 W/m 0,0 km/h (0 Bft) 95,65 %
23.11.2020 07:28 6,5 C 5,6 C 5,0 C 98 % 1027,8 hPa 0,0 l/m 0 min 0 min 0 W/m 0,0 km/h (0 Bft) 97,87 %
23.11.2020 07:30 6,5 C 5,6 C 5,0 C 98 % 1027,8 hPa 0,0 l/m 0 min 0 min 0 W/m 0,0 km/h (0 Bft) 91,49 %
23.11.2020 07:32 6,4 C 5,6 C 5,0 C 98 % 1027,7 hPa 0,0 l/m 0 min 0 min 0 W/m 0,0 km/h (0 Bft) 97,87 %
23.11.2020 07:34 6,4 C 5,6 C 5,0 C 98 % 1027,8 hPa 0,0 l/m 0 min 0 min 0 W/m 0,0 km/h (0 Bft) 97,87 %
23.11.2020 07:36 6,4 C 5,6 C 5,0 C 98 % 1027,8 hPa 0,0 l/m 0 min 0 min 0 W/m 0,0 km/h (0 Bft) 97,83 %
23.11.2020 07:38 6,4 C 5,6 C 5,0 C 98 % 1027,8 hPa 0,0 l/m 0 min 0 min 0 W/m 0,0 km/h (0 Bft) 97,87 %
23.11.2020 07:40 6,4 C 5,6 C 5,0 C 98 % 1027,8 hPa 0,0 l/m 0 min 0 min 0 W/m 0,0 km/h (0 Bft) 96,23 %
23.11.2020 07:42 6,4 C 5,0 C 5,0 C 98 % 1027,8 hPa 0,0 l/m 0 min 0 min 0 W/m 0,0 km/h (0 Bft) 92,68 %
23.11.2020 07:44 6,4 C 5,0 C 5,0 C 98 % 1027,8 hPa 0,0 l/m 0 min 0 min 0 W/m 0,0 km/h (0 Bft) 95,74 %
23.11.2020 07:46 6,3 C 5,0 C 5,0 C 98 % 1027,9 hPa 0,0 l/m 0 min 0 min 0 W/m 0,0 km/h (0 Bft) 95,74 %
23.11.2020 07:48 6,3 C 5,0 C 4,5 C 98 % 1027,9 hPa 0,0 l/m 0 min 0 min 0 W/m 0,0 km/h (0 Bft) 93,48 %
23.11.2020 07:50 6,3 C 5,0 C 5,0 C 98 % 1028,0 hPa 0,0 l/m 0 min 0 min 0 W/m 0,0 km/h (0 Bft) 97,87 %
23.11.2020 07:52 6,3 C 5,0 C 5,0 C 98 % 1027,9 hPa 0,0 l/m 0 min 0 min 0 W/m 0,0 km/h (0 Bft) 95,74 %
23.11.2020 07:54 6,2 C 5,0 C 4,5 C 98 % 1028,0 hPa 0,0 l/m 0 min 0 min 0 W/m 0,0 km/h (0 Bft) 97,87 %
23.11.2020 07:56 6,2 C 5,0 C 4,5 C 98 % 1028,0 hPa 0,0 l/m 0 min 0 min 0 W/m 0,0 km/h (0 Bft) 95,74 %
23.11.2020 07:58 6,2 C 5,0 C 4,5 C 98 % 1028,1 hPa 0,0 l/m 0 min 0 min 0 W/m 0,0 km/h (0 Bft) 95,74 %
23.11.2020 08:00 6,1 C 5,0 C 4,5 C 98 % 1028,1 hPa 0,0 l/m 0 min 0 min 0 W/m 0,0 km/h (0 Bft) 97,83 %
23.11.2020 08:02 6,1 C 5,0 C 3,9 C 98 % 1028,1 hPa 0,0 l/m 0 min 0 min 0 W/m 0,0 km/h (0 Bft) 94,74 %
23.11.2020 08:04 6,1 C 5,0 C 3,9 C 98 % 1028,1 hPa 0,0 l/m 0 min 0 min 0 W/m 0,0 km/h (0 Bft) 97,87 %
23.11.2020 08:06 6,1 C 5,6 C 4,5 C 98 % 1028,1 hPa 0,0 l/m 0 min 0 min 0 W/m 0,0 km/h (0 Bft) 97,87 %
23.11.2020 08:08 6,1 C 5,0 C 3,9 C 98 % 1028,2 hPa 0,0 l/m 0 min 0 min 0 W/m 0,0 km/h (0 Bft) 95,65 %
23.11.2020 08:10 6,1 C 5,0 C 3,9 C 98 % 1028,2 hPa 0,0 l/m 0 min 0 min 0 W/m 0,0 km/h (0 Bft) 93,62 %
23.11.2020 08:12 6,1 C 5,0 C 3,9 C 98 % 1028,3 hPa 0,0 l/m 0 min 0 min 3 W/m 0,0 km/h (0 Bft) 95,74 %
23.11.2020 08:14 6,0 C 5,0 C 3,9 C 98 % 1028,3 hPa 0,0 l/m 0 min 0 min 5 W/m 0,0 km/h (0 Bft) 93,62 %
23.11.2020 08:16 6,0 C 5,0 C 3,9 C 98 % 1028,3 hPa 0,0 l/m 0 min 0 min 5 W/m 0,0 km/h (0 Bft) 95,74 %
23.11.2020 08:18 6,0 C 4,4 C 3,9 C 98 % 1028,3 hPa 0,0 l/m 0 min 0 min 5 W/m 0,0 km/h (0 Bft) 95,74 %
23.11.2020 08:20 6,0 C 4,4 C 3,9 C 98 % 1028,4 hPa 0,0 l/m 0 min 0 min 6 W/m 0,0 km/h (0 Bft) 95,65 %
23.11.2020 08:22 5,9 C 4,4 C 3,9 C 98 % 1028,4 hPa 0,0 l/m 0 min 0 min 7 W/m 0,0 km/h (0 Bft) 95,74 %
23.11.2020 08:24 5,9 C 4,4 C 3,9 C 98 % 1028,4 hPa 0,0 l/m 0 min 0 min 7 W/m 0,0 km/h (0 Bft) 95,74 %
23.11.2020 08:26 5,9 C 4,4 C 3,9 C 98 % 1028,4 hPa 0,0 l/m 0 min 0 min 9 W/m 0,0 km/h (0 Bft) 91,49 %
23.11.2020 08:28 5,8 C 4,4 C 3,9 C 98 % 1028,4 hPa 0,0 l/m 0 min 0 min 9 W/m 0,0 km/h (0 Bft) 91,49 %
23.11.2020 08:30 5,8 C 5,0 C 3,9 C 98 % 1028,4 hPa 0,0 l/m 0 min 0 min 9 W/m 0,0 km/h (0 Bft) 95,74 %
23.11.2020 08:32 5,8 C 5,0 C 3,9 C 98 % 1028,5 hPa 0,0 l/m 0 min 0 min 11 W/m 0,0 km/h (0 Bft) 95,65 %
23.11.2020 08:34 5,7 C 5,0 C 3,9 C 98 % 1028,5 hPa 0,0 l/m 0 min 0 min 11 W/m 0,0 km/h (0 Bft) 95,74 %
23.11.2020 08:36 5,7 C 5,0 C 3,9 C 98 % 1028,5 hPa 0,0 l/m 0 min 0 min 12 W/m 0,0 km/h (0 Bft) 93,62 %
23.11.2020 08:38 5,7 C 5,0 C 3,9 C 98 % 1028,5 hPa 0,0 l/m 0 min 0 min 12 W/m 0,0 km/h (0 Bft) 93,62 %
23.11.2020 08:40 5,6 C 5,0 C 3,9 C 98 % 1028,6 hPa 0,0 l/m 0 min 0 min 13 W/m 0,0 km/h (0 Bft) 93,62 %
23.11.2020 08:42 5,6 C 4,4 C 3,9 C 98 % 1028,6 hPa 0,0 l/m 0 min 0 min 14 W/m 0,0 km/h (0 Bft) 93,48 %
23.11.2020 08:44 5,6 C 5,0 C 3,9 C 98 % 1028,6 hPa 0,0 l/m 0 min 0 min 15 W/m 0,0 km/h (0 Bft) 93,62 %
23.11.2020 08:46 5,6 C 5,0 C 3,9 C 98 % 1028,6 hPa 0,0 l/m 0 min 0 min 16 W/m 0,0 km/h (0 Bft) 95,74 %
23.11.2020 08:48 5,6 C 5,0 C 3,9 C 98 % 1028,6 hPa 0,0 l/m 0 min 0 min 18 W/m 0,0 km/h (0 Bft) 91,49 %
23.11.2020 08:50 5,6 C 5,6 C 4,5 C 98 % 1028,6 hPa 0,0 l/m 0 min 0 min 19 W/m 0,0 km/h (0 Bft) 95,74 %
23.11.2020 08:52 5,6 C 5,0 C 4,5 C 98 % 1028,6 hPa 0,0 l/m 0 min 0 min 20 W/m 0,0 km/h (0 Bft) 95,74 %
23.11.2020 08:54 5,6 C 5,6 C 5,0 C 98 % 1028,7 hPa 0,0 l/m 0 min 0 min 21 W/m 0,0 km/h (0 Bft) 95,65 %
23.11.2020 08:56 5,6 C 5,6 C 5,0 C 98 % 1028,7 hPa 0,0 l/m 0 min 0 min 23 W/m 0,0 km/h (0 Bft) 95,74 %
23.11.2020 08:58 5,7 C 5,6 C 5,0 C 98 % 1028,7 hPa 0,0 l/m 0 min 0 min 23 W/m 0,0 km/h (0 Bft) 95,74 %
23.11.2020 09:00 5,7 C 5,6 C 5,0 C 98 % 1028,7 hPa 0,0 l/m 0 min 0 min 23 W/m 0,0 km/h (0 Bft) 93,62 %
23.11.2020 09:02 5,8 C 5,6 C 5,0 C 98 % 1028,8 hPa 0,0 l/m 0 min 0 min 23 W/m 0,0 km/h (0 Bft) 86,67 %
23.11.2020 09:04 5,8 C 5,6 C 5,0 C 99 % 1028,8 hPa 0,0 l/m 0 min 0 min 23 W/m 0,0 km/h (0 Bft) 97,73 %
23.11.2020 09:06 5,8 C 5,6 C 4,5 C 99 % 1028,9 hPa 0,0 l/m 0 min 0 min 23 W/m 0,0 km/h (0 Bft) 97,83 %
23.11.2020 09:08 5,9 C 5,6 C 5,0 C 98 % 1028,8 hPa 0,0 l/m 0 min 0 min 25 W/m 0,0 km/h (0 Bft) 95,74 %
23.11.2020 09:10 5,9 C 5,6 C 5,0 C 98 % 1028,8 hPa 0,0 l/m 0 min 0 min 25 W/m 0,0 km/h (0 Bft) 97,87 %
23.11.2020 09:12 5,9 C 5,6 C 5,0 C 98 % 1028,8 hPa 0,0 l/m 0 min 0 min 25 W/m 0,0 km/h (0 Bft) 97,87 %
23.11.2020 09:14 5,9 C 5,6 C 5,0 C 99 % 1028,8 hPa 0,0 l/m 0 min 0 min 25 W/m 0,0 km/h (0 Bft) 95,74 %
23.11.2020 09:16 6,0 C 5,6 C 5,0 C 99 % 1028,8 hPa 0,0 l/m 0 min 0 min 26 W/m 0,0 km/h (0 Bft) 97,87 %
23.11.2020 09:18 6,0 C 5,6 C 5,0 C 99 % 1028,8 hPa 0,0 l/m 0 min 0 min 26 W/m 0,0 km/h (0 Bft) 100,00 %
23.11.2020 09:20 6,0 C 5,6 C 5,6 C 99 % 1028,9 hPa 0,0 l/m 0 min 0 min 26 W/m 0,0 km/h (0 Bft) 100,00 %
23.11.2020 09:22 6,0 C 5,6 C 5,0 C 99 % 1028,9 hPa 0,0 l/m 0 min 0 min 26 W/m 0,0 km/h (0 Bft) 100,00 %
23.11.2020 09:24 6,0 C 5,6 C 5,0 C 99 % 1028,9 hPa 0,0 l/m 0 min 0 min 26 W/m 0,0 km/h (0 Bft) 100,00 %
23.11.2020 09:26 6,0 C 5,6 C 5,6 C 99 % 1028,9 hPa 0,0 l/m 0 min 0 min 26 W/m 0,0 km/h (0 Bft) 97,87 %
23.11.2020 09:28 6,0 C 5,6 C 5,6 C 99 % 1028,9 hPa 0,0 l/m 0 min 0 min 26 W/m 0,0 km/h (0 Bft) 100,00 %
23.11.2020 09:30 6,1 C 5,6 C 5,6 C 99 % 1028,9 hPa 0,0 l/m 0 min 0 min 26 W/m 0,0 km/h (0 Bft) 100,00 %
23.11.2020 09:32 6,1 C 5,6 C 5,6 C 99 % 1028,9 hPa 0,0 l/m 0 min 0 min 26 W/m 0,0 km/h (0 Bft) 100,00 %
23.11.2020 09:34 6,1 C 5,6 C 5,6 C 99 % 1029,0 hPa 0,0 l/m 0 min 0 min 25 W/m 0,0 km/h (0 Bft) 100,00 %
23.11.2020 09:36 6,1 C 5,6 C 5,6 C 99 % 1029,0 hPa 0,0 l/m 0 min 0 min 26 W/m 0,0 km/h (0 Bft) 100,00 %
23.11.2020 09:38 6,1 C 5,6 C 5,6 C 99 % 1029,0 hPa 0,0 l/m 0 min 0 min 26 W/m 0,0 km/h (0 Bft) 100,00 %
23.11.2020 09:40 6,1 C 6,1 C 5,6 C 99 % 1029,1 hPa 0,0 l/m 0 min 0 min 26 W/m 0,0 km/h (0 Bft) 100,00 %
23.11.2020 09:42 6,1 C 6,1 C 5,6 C 99 % 1029,1 hPa 0,0 l/m 0 min 0 min 26 W/m 0,0 km/h (0 Bft) 100,00 %
23.11.2020 09:44 6,1 C 6,1 C 5,6 C 99 % 1029,1 hPa 0,0 l/m 0 min 0 min 28 W/m 0,0 km/h (0 Bft) 100,00 %
23.11.2020 09:46 6,1 C 6,1 C 5,6 C 99 % 1029,2 hPa 0,0 l/m 0 min 0 min 29 W/m 0,0 km/h (0 Bft) 100,00 %
23.11.2020 09:48 6,2 C 6,1 C 5,6 C 99 % 1029,2 hPa 0,0 l/m 0 min 0 min 29 W/m 0,0 km/h (0 Bft) 97,87 %
23.11.2020 09:50 6,2 C 6,1 C 6,1 C 99 % 1029,2 hPa 0,0 l/m 0 min 0 min 29 W/m 0,0 km/h (0 Bft) 100,00 %
23.11.2020 09:52 6,2 C 6,1 C 6,1 C 99 % 1029,3 hPa 0,0 l/m 0 min 0 min 29 W/m 0,0 km/h (0 Bft) 97,87 %
23.11.2020 09:54 6,2 C 6,1 C 6,1 C 99 % 1029,3 hPa 0,0 l/m 0 min 0 min 26 W/m 0,0 km/h (0 Bft) 100,00 %
23.11.2020 09:56 6,3 C 6,1 C 6,1 C 99 % 1029,3 hPa 0,0 l/m 0 min 0 min 28 W/m 0,0 km/h (0 Bft) 100,00 %
23.11.2020 09:58 6,3 C 6,1 C 6,1 C 99 % 1029,3 hPa 0,0 l/m 0 min 0 min 29 W/m 0,0 km/h (0 Bft) 100,00 %
23.11.2020 10:00 6,3 C 6,1 C 6,1 C 99 % 1029,3 hPa 0,0 l/m 0 min 0 min 31 W/m 0,0 km/h (0 Bft) 100,00 %
23.11.2020 10:02 6,3 C 6,1 C 6,1 C 99 % 1029,3 hPa 0,0 l/m 0 min 0 min 32 W/m 0,0 km/h (0 Bft) 97,87 %
23.11.2020 10:04 6,3 C 6,1 C 6,1 C 99 % 1029,2 hPa 0,0 l/m 0 min 0 min 33 W/m 0,0 km/h (0 Bft) 100,00 %
23.11.2020 10:06 6,3 C 6,7 C 6,1 C 99 % 1029,2 hPa 0,0 l/m 0 min 0 min 35 W/m 0,0 km/h (0 Bft) 100,00 %
23.11.2020 10:08 6,4 C 6,7 C 6,1 C 99 % 1029,3 hPa 0,0 l/m 0 min 0 min 35 W/m 0,0 km/h (0 Bft) 100,00 %
23.11.2020 10:10 6,4 C 6,7 C 6,1 C 99 % 1029,3 hPa 0,0 l/m 0 min 0 min 37 W/m 0,0 km/h (0 Bft) 100,00 %
23.11.2020 10:12 6,4 C 6,7 C 6,7 C 99 % 1029,3 hPa 0,0 l/m 0 min 0 min 39 W/m 3,2 km/h (1 Bft) 100,00 %
23.11.2020 10:14 6,4 C 6,7 C 6,7 C 99 % 1029,3 hPa 0,0 l/m 0 min 0 min 40 W/m 0,0 km/h (0 Bft) 100,00 %
23.11.2020 10:16 6,4 C 6,7 C 6,7 C 99 % 1029,3 hPa 0,0 l/m 0 min 0 min 42 W/m 0,0 km/h (0 Bft) 100,00 %
23.11.2020 10:18 6,4 C 6,7 C 6,7 C 99 % 1029,3 hPa 0,0 l/m 0 min 0 min 44 W/m 0,0 km/h (0 Bft) 100,00 %
23.11.2020 10:20 6,4 C 6,7 C 6,7 C 99 % 1029,3 hPa 0,0 l/m 0 min 0 min 45 W/m 0,0 km/h (0 Bft) 97,87 %
23.11.2020 10:22 6,5 C 6,7 C 6,7 C 99 % 1029,3 hPa 0,0 l/m 0 min 0 min 46 W/m 0,0 km/h (0 Bft) 100,00 %
23.11.2020 10:24 6,5 C 6,7 C 6,7 C 99 % 1029,3 hPa 0,0 l/m 0 min 0 min 46 W/m 3,2 km/h (1 Bft) 97,87 %
23.11.2020 10:26 6,5 C 6,7 C 6,7 C 99 % 1029,4 hPa 0,0 l/m 0 min 0 min 47 W/m 3,2 km/h (1 Bft) 100,00 %
23.11.2020 10:28 6,5 C 6,7 C 6,7 C 99 % 1029,3 hPa 0,0 l/m 0 min 0 min 50 W/m 0,0 km/h (0 Bft) 100,00 %
23.11.2020 10:30 6,6 C 6,7 C 6,7 C 99 % 1029,4 hPa 0,0 l/m 0 min 0 min 51 W/m 0,0 km/h (0 Bft) 97,87 %
23.11.2020 10:32 6,6 C 7,2 C 7,2 C 99 % 1029,4 hPa 0,0 l/m 0 min 0 min 49 W/m 0,0 km/h (0 Bft) 100,00 %
23.11.2020 10:34 6,6 C 7,2 C 7,2 C 99 % 1029,4 hPa 0,0 l/m 0 min 0 min 50 W/m 0,0 km/h (0 Bft) 100,00 %
23.11.2020 10:36 6,6 C 7,2 C 7,2 C 99 % 1029,3 hPa 0,0 l/m 0 min 0 min 49 W/m 0,0 km/h (0 Bft) 100,00 %
23.11.2020 10:38 6,6 C 7,2 C 7,2 C 99 % 1029,4 hPa 0,0 l/m 0 min 0 min 49 W/m 0,0 km/h (0 Bft) 100,00 %
23.11.2020 10:40 6,7 C 7,2 C 7,2 C 99 % 1029,4 hPa 0,0 l/m 0 min 0 min 50 W/m 0,0 km/h (0 Bft) 100,00 %
23.11.2020 10:42 6,7 C 7,2 C 7,2 C 99 % 1029,4 hPa 0,0 l/m 0 min 0 min 52 W/m 0,0 km/h (0 Bft) 100,00 %
23.11.2020 10:44 6,8 C 7,2 C 7,2 C 99 % 1029,5 hPa 0,0 l/m 0 min 0 min 53 W/m 0,0 km/h (0 Bft) 100,00 %
23.11.2020 10:46 6,8 C 7,2 C 7,2 C 99 % 1029,5 hPa 0,0 l/m 0 min 0 min 54 W/m 0,0 km/h (0 Bft) 100,00 %
23.11.2020 10:48 6,8 C 7,2 C 7,2 C 99 % 1029,5 hPa 0,0 l/m 0 min 0 min 57 W/m 0,0 km/h (0 Bft) 100,00 %
23.11.2020 10:50 6,8 C 7,2 C 7,2 C 99 % 1029,5 hPa 0,0 l/m 0 min 0 min 58 W/m 0,0 km/h (0 Bft) 97,87 %
23.11.2020 10:52 6,8 C 7,2 C 7,2 C 99 % 1029,6 hPa 0,0 l/m 0 min 0 min 55 W/m 0,0 km/h (0 Bft) 97,83 %
23.11.2020 10:54 6,8 C 7,2 C 7,2 C 99 % 1029,5 hPa 0,0 l/m 0 min 0 min 53 W/m 0,0 km/h (0 Bft) 95,74 %
23.11.2020 10:56 6,9 C 7,2 C 7,2 C 99 % 1029,6 hPa 0,0 l/m 0 min 0 min 54 W/m 0,0 km/h (0 Bft) 95,74 %
23.11.2020 10:58 6,9 C 7,2 C 7,2 C 99 % 1029,6 hPa 0,0 l/m 0 min 0 min 57 W/m 3,2 km/h (1 Bft) 95,74 %
23.11.2020 11:00 6,9 C 7,2 C 7,2 C 99 % 1029,6 hPa 0,0 l/m 0 min 0 min 59 W/m 0,0 km/h (0 Bft) 97,87 %
23.11.2020 11:02 6,9 C 7,8 C 7,2 C 99 % 1029,6 hPa 0,0 l/m 0 min 0 min 62 W/m 9,7 km/h (2 Bft) 95,65 %
23.11.2020 11:04 6,9 C 7,8 C 7,2 C 99 % 1029,7 hPa 0,0 l/m 0 min 0 min 79 W/m 6,4 km/h (2 Bft) 95,74 %
23.11.2020 11:06 6,9 C 9,4 C 7,2 C 99 % 1029,7 hPa 0,0 l/m 2 min 0 min 183 W/m 3,2 km/h (1 Bft) 95,74 %
23.11.2020 11:08 7,0 C 9,4 C 7,2 C 99 % 1029,7 hPa 0,0 l/m 0 min 0 min 137 W/m 3,2 km/h (1 Bft) 97,87 %
23.11.2020 11:10 7,0 C 10,6 C 7,2 C 99 % 1029,7 hPa 0,0 l/m 2 min 0 min 233 W/m 3,2 km/h (1 Bft) 97,78 %
23.11.2020 11:12 7,0 C 11,7 C 7,2 C 99 % 1029,7 hPa 0,0 l/m 2 min 0 min 235 W/m 0,0 km/h (0 Bft) 97,87 %
23.11.2020 11:14 7,0 C 11,7 C 7,8 C 99 % 1029,7 hPa 0,0 l/m 2 min 0 min 268 W/m 0,0 km/h (0 Bft) 95,65 %
23.11.2020 11:16 7,1 C 11,1 C 7,8 C 99 % 1029,7 hPa 0,0 l/m 2 min 0 min 234 W/m 0,0 km/h (0 Bft) 93,62 %
23.11.2020 11:18 7,2 C 11,1 C 7,8 C 99 % 1029,7 hPa 0,0 l/m 2 min 0 min 186 W/m 0,0 km/h (0 Bft) 95,74 %
23.11.2020 11:20 7,3 C 11,7 C 7,8 C 99 % 1029,7 hPa 0,0 l/m 2 min 0 min 252 W/m 0,0 km/h (0 Bft) 93,62 %
23.11.2020 11:22 7,3 C 12,2 C 7,8 C 99 % 1029,7 hPa 0,0 l/m 2 min 0 min 263 W/m 0,0 km/h (0 Bft) 95,74 %
23.11.2020 11:24 7,4 C 12,2 C 7,8 C 99 % 1029,7 hPa 0,0 l/m 2 min 0 min 259 W/m 0,0 km/h (0 Bft) 93,62 %
23.11.2020 11:26 7,5 C 12,8 C 7,8 C 99 % 1029,7 hPa 0,0 l/m 2 min 0 min 264 W/m 0,0 km/h (0 Bft) 95,65 %
23.11.2020 11:28 7,6 C 12,8 C 8,4 C 99 % 1029,8 hPa 0,0 l/m 2 min 0 min 266 W/m 0,0 km/h (0 Bft) 95,74 %
23.11.2020 11:30 7,6 C 12,8 C 8,4 C 98 % 1029,8 hPa 0,0 l/m 2 min 0 min 220 W/m 0,0 km/h (0 Bft) 95,74 %
23.11.2020 11:32 7,7 C 13,3 C 8,4 C 98 % 1029,8 hPa 0,0 l/m 2 min 0 min 244 W/m 0,0 km/h (0 Bft) 97,92 %
23.11.2020 11:34 7,8 C 13,3 C 9,5 C 98 % 1029,8 hPa 0,0 l/m 2 min 0 min 294 W/m 0,0 km/h (0 Bft) 95,74 %
23.11.2020 11:36 7,9 C 14,4 C 10,6 C 98 % 1029,9 hPa 0,0 l/m 2 min 0 min 323 W/m 0,0 km/h (0 Bft) 97,87 %
23.11.2020 11:38 8,0 C 15,0 C 11,7 C 98 % 1029,9 hPa 0,0 l/m 2 min 0 min 328 W/m 0,0 km/h (0 Bft) 97,83 %
23.11.2020 11:40 8,0 C 15,0 C 12,2 C 98 % 1029,9 hPa 0,0 l/m 2 min 0 min 331 W/m 0,0 km/h (0 Bft) 97,87 %
23.11.2020 11:42 8,1 C 15,6 C 12,8 C 98 % 1029,9 hPa 0,0 l/m 2 min 0 min 333 W/m 3,2 km/h (1 Bft) 97,87 %
23.11.2020 11:44 8,3 C 13,9 C 12,8 C 97 % 1029,9 hPa 0,0 l/m 2 min 0 min 332 W/m 0,0 km/h (0 Bft) 97,87 %
23.11.2020 11:46 8,4 C 14,4 C 13,4 C 97 % 1029,8 hPa 0,0 l/m 2 min 0 min 332 W/m 0,0 km/h (0 Bft) 97,87 %
23.11.2020 11:48 8,5 C 15,0 C 13,4 C 96 % 1029,8 hPa 0,0 l/m 2 min 0 min 332 W/m 0,0 km/h (0 Bft) 97,83 %
23.11.2020 11:50 8,6 C 15,6 C 13,4 C 96 % 1029,8 hPa 0,0 l/m 2 min 0 min 331 W/m 0,0 km/h (0 Bft) 97,87 %
23.11.2020 11:52 8,8 C 15,0 C 13,9 C 95 % 1029,8 hPa 0,0 l/m 2 min 0 min 330 W/m 0,0 km/h (0 Bft) 95,74 %
23.11.2020 11:54 8,8 C 14,4 C 13,4 C 94 % 1029,8 hPa 0,0 l/m 2 min 0 min 284 W/m 0,0 km/h (0 Bft) 97,87 %
23.11.2020 11:56 8,9 C 15,0 C 13,9 C 94 % 1029,8 hPa 0,0 l/m 2 min 0 min 304 W/m 0,0 km/h (0 Bft) 95,74 %
23.11.2020 11:58 9,0 C 15,0 C 13,4 C 93 % 1029,8 hPa 0,0 l/m 2 min 0 min 302 W/m 0,0 km/h (0 Bft) 95,74 %
23.11.2020 12:00 9,1 C 16,1 C 14,5 C 92 % 1029,8 hPa 0,0 l/m 2 min 0 min 315 W/m 0,0 km/h (0 Bft) 95,65 %
23.11.2020 12:02 9,3 C 16,1 C 13,4 C 91 % 1029,7 hPa 0,0 l/m 2 min 0 min 313 W/m 0,0 km/h (0 Bft) 95,74 %
23.11.2020 12:04 9,3 C 16,1 C 13,4 C 90 % 1029,8 hPa 0,0 l/m 2 min 0 min 293 W/m 0,0 km/h (0 Bft) 95,74 %
23.11.2020 12:07 9,4 C 14,4 C 12,2 C 89 % 1029,8 hPa 0,0 l/m 3 min 0 min 190 W/m 0,0 km/h (0 Bft) 94,37 %
23.11.2020 12:08 9,5 C 14,4 C 12,2 C 88 % 1029,8 hPa 0,0 l/m 1 min 0 min 243 W/m 0,0 km/h (0 Bft) 100,00 %
23.11.2020 12:10 9,5 C 15,0 C 12,2 C 87 % 1029,7 hPa 0,0 l/m 2 min 0 min 286 W/m 0,0 km/h (0 Bft) 95,74 %
23.11.2020 12:12 9,6 C 15,6 C 13,4 C 86 % 1029,7 hPa 0,0 l/m 2 min 0 min 316 W/m 0,0 km/h (0 Bft) 95,45 %
23.11.2020 12:14 9,6 C 15,0 C 13,4 C 85 % 1029,7 hPa 0,0 l/m 2 min 0 min 295 W/m 0,0 km/h (0 Bft) 93,75 %
23.11.2020 12:16 9,7 C 15,0 C 13,4 C 84 % 1029,6 hPa 0,0 l/m 2 min 0 min 284 W/m 0,0 km/h (0 Bft) 93,62 %
23.11.2020 12:18 9,8 C 14,4 C 13,4 C 84 % 1029,6 hPa 0,0 l/m 2 min 0 min 278 W/m 0,0 km/h (0 Bft) 95,74 %
23.11.2020 12:20 9,9 C 13,9 C 12,8 C 83 % 1029,6 hPa 0,0 l/m 2 min 0 min 265 W/m 0,0 km/h (0 Bft) 95,74 %
23.11.2020 12:22 9,9 C 13,9 C 12,2 C 83 % 1029,6 hPa 0,0 l/m 2 min 0 min 296 W/m 0,0 km/h (0 Bft) 97,87 %
23.11.2020 12:24 10,0 C 13,3 C 13,4 C 82 % 1029,6 hPa 0,0 l/m 2 min 0 min 320 W/m 0,0 km/h (0 Bft) 95,65 %
23.11.2020 12:26 10,0 C 13,3 C 12,8 C 81 % 1029,5 hPa 0,0 l/m 2 min 0 min 345 W/m 0,0 km/h (0 Bft) 95,74 %
23.11.2020 12:28 10,1 C 13,3 C 13,4 C 80 % 1029,6 hPa 0,0 l/m 2 min 0 min 350 W/m 0,0 km/h (0 Bft) 95,74 %
23.11.2020 12:30 10,1 C 15,0 C 13,9 C 80 % 1029,6 hPa 0,0 l/m 2 min 0 min 364 W/m 0,0 km/h (0 Bft) 95,74 %
23.11.2020 12:32 10,2 C 16,1 C 13,9 C 80 % 1029,6 hPa 0,0 l/m 2 min 0 min 364 W/m 9,7 km/h (2 Bft) 95,74 %
23.11.2020 12:34 10,3 C 15,6 C 13,9 C 80 % 1029,7 hPa 0,0 l/m 2 min 0 min 359 W/m 6,4 km/h (2 Bft) 95,74 %
23.11.2020 12:36 10,3 C 15,0 C 13,9 C 80 % 1029,7 hPa 0,0 l/m 2 min 0 min 335 W/m 0,0 km/h (0 Bft) 95,65 %
23.11.2020 12:38 10,4 C 16,1 C 14,5 C 79 % 1029,7 hPa 0,0 l/m 2 min 0 min 322 W/m 0,0 km/h (0 Bft) 97,87 %
23.11.2020 12:40 10,4 C 17,2 C 15,0 C 79 % 1029,7 hPa 0,0 l/m 2 min 0 min 347 W/m 0,0 km/h (0 Bft) 97,87 %
23.11.2020 12:42 10,5 C 15,0 C 14,5 C 79 % 1029,6 hPa 0,0 l/m 2 min 0 min 323 W/m 0,0 km/h (0 Bft) 95,74 %
23.11.2020 12:44 10,5 C 15,6 C 13,9 C 78 % 1029,6 hPa 0,0 l/m 2 min 0 min 280 W/m 3,2 km/h (1 Bft) 100,00 %
23.11.2020 12:46 10,5 C 15,0 C 13,4 C 78 % 1029,6 hPa 0,0 l/m 2 min 0 min 248 W/m 9,7 km/h (2 Bft) 95,74 %
23.11.2020 12:48 10,6 C 15,0 C 12,8 C 78 % 1029,6 hPa 0,0 l/m 2 min 0 min 220 W/m 12,9 km/h (3 Bft) 95,65 %
23.11.2020 12:50 10,6 C 13,9 C 12,2 C 77 % 1029,6 hPa 0,0 l/m 2 min 0 min 213 W/m 6,4 km/h (2 Bft) 95,74 %
23.11.2020 12:52 10,6 C 13,9 C 12,2 C 77 % 1029,6 hPa 0,0 l/m 2 min 0 min 201 W/m 9,7 km/h (2 Bft) 95,74 %
23.11.2020 12:54 10,6 C 14,4 C 12,8 C 77 % 1029,6 hPa 0,0 l/m 2 min 0 min 242 W/m 0,0 km/h (0 Bft) 95,74 %
23.11.2020 12:56 10,6 C 14,4 C 12,2 C 77 % 1029,5 hPa 0,0 l/m 2 min 0 min 216 W/m 9,7 km/h (2 Bft) 95,74 %
23.11.2020 12:58 10,6 C 15,0 C 12,2 C 76 % 1029,5 hPa 0,0 l/m 2 min 0 min 283 W/m 3,2 km/h (1 Bft) 95,65 %
23.11.2020 13:00 10,6 C 15,0 C 12,8 C 76 % 1029,5 hPa 0,0 l/m 2 min 0 min 279 W/m 6,4 km/h (2 Bft) 93,62 %
23.11.2020 13:02 10,6 C 14,4 C 12,2 C 76 % 1029,4 hPa 0,0 l/m 2 min 0 min 250 W/m 6,4 km/h (2 Bft) 93,75 %
23.11.2020 13:04 10,6 C 14,4 C 12,2 C 76 % 1029,4 hPa 0,0 l/m 2 min 0 min 291 W/m 3,2 km/h (1 Bft) 95,65 %
23.11.2020 13:06 10,6 C 15,6 C 12,8 C 76 % 1029,5 hPa 0,0 l/m 2 min 0 min 315 W/m 3,2 km/h (1 Bft) 95,74 %
23.11.2020 13:08 10,6 C 15,0 C 12,2 C 75 % 1029,4 hPa 0,0 l/m 2 min 0 min 292 W/m 6,4 km/h (2 Bft) 95,74 %
23.11.2020 13:10 10,6 C 16,1 C 12,2 C 75 % 1029,4 hPa 0,0 l/m 2 min 0 min 308 W/m 3,2 km/h (1 Bft) 93,48 %
23.11.2020 13:12 10,6 C 16,7 C 13,4 C 75 % 1029,4 hPa 0,0 l/m 2 min 0 min 315 W/m 3,2 km/h (1 Bft) 93,62 %
23.11.2020 13:14 10,6 C 16,7 C 14,5 C 75 % 1029,4 hPa 0,0 l/m 2 min 0 min 318 W/m 6,4 km/h (2 Bft) 93,18 %
23.11.2020 13:16 10,6 C 17,8 C 15,6 C 75 % 1029,4 hPa 0,0 l/m 2 min 0 min 321 W/m 0,0 km/h (0 Bft) 95,74 %
23.11.2020 13:18 10,6 C 17,2 C 15,0 C 75 % 1029,4 hPa 0,0 l/m 2 min 0 min 320 W/m 9,7 km/h (2 Bft) 95,74 %
23.11.2020 13:20 10,6 C 16,7 C 15,6 C 75 % 1029,4 hPa 0,0 l/m 2 min 0 min 306 W/m 3,2 km/h (1 Bft) 93,62 %
23.11.2020 13:22 10,7 C 17,2 C 16,1 C 75 % 1029,4 hPa 0,0 l/m 2 min 0 min 305 W/m 6,4 km/h (2 Bft) 95,65 %
23.11.2020 13:24 10,8 C 16,7 C 15,6 C 75 % 1029,4 hPa 0,0 l/m 2 min 0 min 308 W/m 6,4 km/h (2 Bft) 97,87 %
23.11.2020 13:26 10,8 C 16,1 C 14,5 C 75 % 1029,5 hPa 0,0 l/m 2 min 0 min 260 W/m 9,7 km/h (2 Bft) 100,00 %
23.11.2020 13:28 10,7 C 15,6 C 13,9 C 74 % 1029,5 hPa 0,0 l/m 2 min 0 min 215 W/m 6,4 km/h (2 Bft) 97,87 %
23.11.2020 13:30 10,7 C 14,4 C 13,4 C 74 % 1029,5 hPa 0,0 l/m 2 min 0 min 230 W/m 0,0 km/h (0 Bft) 97,87 %
23.11.2020 13:32 10,8 C 14,4 C 12,8 C 74 % 1029,5 hPa 0,0 l/m 2 min 0 min 249 W/m 0,0 km/h (0 Bft) 97,87 %
23.11.2020 13:34 10,7 C 11,7 C 10,6 C 74 % 1029,6 hPa 0,0 l/m 0 min 0 min 102 W/m 6,4 km/h (2 Bft) 97,83 %
23.11.2020 13:36 10,8 C 13,9 C 11,7 C 75 % 1029,5 hPa 0,0 l/m 2 min 0 min 171 W/m 0,0 km/h (0 Bft) 100,00 %
23.11.2020 13:38 10,8 C 15,0 C 11,7 C 75 % 1029,5 hPa 0,0 l/m 2 min 0 min 352 W/m 6,4 km/h (2 Bft) 100,00 %
23.11.2020 13:40 10,8 C 15,6 C 11,7 C 75 % 1029,5 hPa 0,0 l/m 2 min 0 min 342 W/m 3,2 km/h (1 Bft) 100,00 %
23.11.2020 13:42 10,8 C 15,6 C 11,1 C 75 % 1029,5 hPa 0,0 l/m 2 min 0 min 304 W/m 0,0 km/h (0 Bft) 97,87 %
23.11.2020 13:44 10,8 C 15,0 C 11,1 C 75 % 1029,6 hPa 0,0 l/m 2 min 0 min 296 W/m 0,0 km/h (0 Bft) 100,00 %
23.11.2020 13:46 10,8 C 14,4 C 11,1 C 74 % 1029,6 hPa 0,0 l/m 2 min 0 min 300 W/m 6,4 km/h (2 Bft) 100,00 %
23.11.2020 13:48 10,8 C 13,9 C 11,7 C 74 % 1029,5 hPa 0,0 l/m 2 min 0 min 304 W/m 3,2 km/h (1 Bft) 100,00 %
23.11.2020 13:50 10,8 C 13,9 C 11,7 C 73 % 1029,5 hPa 0,0 l/m 2 min 0 min 297 W/m 6,4 km/h (2 Bft) 100,00 %
23.11.2020 13:52 10,8 C 13,9 C 11,7 C 73 % 1029,5 hPa 0,0 l/m 2 min 0 min 304 W/m 12,9 km/h (3 Bft) 97,87 %
23.11.2020 13:54 10,9 C 15,0 C 12,8 C 73 % 1029,4 hPa 0,0 l/m 2 min 0 min 308 W/m 3,2 km/h (1 Bft) 95,74 %
23.11.2020 13:56 10,9 C 14,4 C 13,4 C 73 % 1029,5 hPa 0,0 l/m 2 min 0 min 304 W/m 3,2 km/h (1 Bft) 97,87 %
23.11.2020 13:58 10,9 C 14,4 C 13,4 C 73 % 1029,5 hPa 0,0 l/m 2 min 0 min 285 W/m 6,4 km/h (2 Bft) 97,83 %
23.11.2020 14:00 10,9 C 13,9 C 13,4 C 72 % 1029,5 hPa 0,0 l/m 2 min 0 min 268 W/m 0,0 km/h (0 Bft) 97,87 %
23.11.2020 14:02 10,9 C 13,9 C 13,4 C 72 % 1029,5 hPa 0,0 l/m 2 min 0 min 272 W/m 3,2 km/h (1 Bft) 97,92 %
23.11.2020 14:04 10,9 C 13,9 C 13,4 C 71 % 1029,5 hPa 0,0 l/m 2 min 0 min 258 W/m 6,4 km/h (2 Bft) 97,87 %
23.11.2020 14:06 10,9 C 12,8 C 12,8 C 72 % 1029,4 hPa 0,0 l/m 2 min 0 min 240 W/m 6,4 km/h (2 Bft) 93,62 %
23.11.2020 14:08 10,9 C 11,1 C 11,1 C 72 % 1029,4 hPa 0,0 l/m 0 min 0 min 67 W/m 6,4 km/h (2 Bft) 97,83 %
23.11.2020 14:10 10,9 C 10,6 C 9,5 C 72 % 1029,3 hPa 0,0 l/m 0 min 0 min 51 W/m 12,9 km/h (3 Bft) 95,74 %
23.11.2020 14:12 10,9 C 10,0 C 8,9 C 71 % 1029,4 hPa 0,0 l/m 0 min 0 min 59 W/m 16,1 km/h (3 Bft) 97,87 %
23.11.2020 14:14 10,8 C 10,6 C 9,5 C 71 % 1029,4 hPa 0,0 l/m 0 min 0 min 67 W/m 12,9 km/h (3 Bft) 97,87 %
23.11.2020 14:16 10,8 C 11,7 C 11,1 C 71 % 1029,4 hPa 0,0 l/m 2 min 0 min 167 W/m 0,0 km/h (0 Bft) 97,96 %
23.11.2020 14:18 10,7 C 11,1 C 10,0 C 71 % 1029,3 hPa 0,0 l/m 2 min 0 min 125 W/m 12,9 km/h (3 Bft) 97,62 %
23.11.2020 14:20 10,6 C 10,0 C 9,5 C 71 % 1029,3 hPa 0,0 l/m 0 min 0 min 73 W/m 3,2 km/h (1 Bft) 97,87 %
23.11.2020 14:22 10,6 C 10,0 C 8,9 C 71 % 1029,3 hPa 0,0 l/m 0 min 0 min 58 W/m 0,0 km/h (0 Bft) 97,83 %
23.11.2020 14:24 10,5 C 10,0 C 8,9 C 72 % 1029,4 hPa 0,0 l/m 0 min 0 min 84 W/m 0,0 km/h (0 Bft) 97,87 %
23.11.2020 14:26 10,5 C 10,0 C 8,4 C 72 % 1029,4 hPa 0,0 l/m 0 min 0 min 59 W/m 3,2 km/h (1 Bft) 97,87 %
23.11.2020 14:28 10,5 C 10,0 C 8,4 C 72 % 1029,4 hPa 0,0 l/m 0 min 0 min 66 W/m 0,0 km/h (0 Bft) 97,87 %
23.11.2020 14:30 10,5 C 10,0 C 8,4 C 73 % 1029,4 hPa 0,0 l/m 0 min 0 min 81 W/m 0,0 km/h (0 Bft) 97,87 %
23.11.2020 14:32 10,4 C 11,1 C 8,4 C 72 % 1029,4 hPa 0,0 l/m 2 min 0 min 146 W/m 3,2 km/h (1 Bft) 97,83 %
23.11.2020 14:34 10,4 C 11,7 C 8,4 C 72 % 1029,3 hPa 0,0 l/m 2 min 0 min 223 W/m 0,0 km/h (0 Bft) 100,00 %
23.11.2020 14:36 10,4 C 11,7 C 8,4 C 73 % 1029,3 hPa 0,0 l/m 2 min 0 min 232 W/m 0,0 km/h (0 Bft) 100,00 %
23.11.2020 14:38 10,3 C 11,7 C 8,4 C 73 % 1029,3 hPa 0,0 l/m 2 min 0 min 230 W/m 3,2 km/h (1 Bft) 100,00 %
23.11.2020 14:40 10,3 C 13,3 C 8,4 C 73 % 1029,3 hPa 0,0 l/m 2 min 0 min 232 W/m 0,0 km/h (0 Bft) 97,87 %
23.11.2020 14:42 10,3 C 13,9 C 8,4 C 73 % 1029,2 hPa 0,0 l/m 2 min 0 min 229 W/m 3,2 km/h (1 Bft) 100,00 %
23.11.2020 14:44 10,3 C 14,4 C 8,9 C 73 % 1029,3 hPa 0,0 l/m 2 min 0 min 210 W/m 0,0 km/h (0 Bft) 100,00 %
23.11.2020 14:46 10,4 C 15,6 C 8,9 C 74 % 1029,3 hPa 0,0 l/m 2 min 0 min 186 W/m 0,0 km/h (0 Bft) 100,00 %
23.11.2020 14:48 10,4 C 15,0 C 8,9 C 74 % 1029,2 hPa 0,0 l/m 2 min 0 min 184 W/m 3,2 km/h (1 Bft) 100,00 %
23.11.2020 14:50 10,4 C 14,4 C 8,9 C 73 % 1029,2 hPa 0,0 l/m 2 min 0 min 189 W/m 0,0 km/h (0 Bft) 100,00 %
23.11.2020 14:52 10,4 C 14,4 C 8,9 C 73 % 1029,2 hPa 0,0 l/m 2 min 0 min 193 W/m 0,0 km/h (0 Bft) 100,00 %
23.11.2020 14:54 10,5 C 13,3 C 8,9 C 74 % 1029,1 hPa 0,0 l/m 2 min 0 min 147 W/m 3,2 km/h (1 Bft) 97,87 %
23.11.2020 14:56 10,5 C 12,8 C 8,9 C 73 % 1029,1 hPa 0,0 l/m 2 min 0 min 172 W/m 3,2 km/h (1 Bft) 97,83 %
23.11.2020 14:58 10,5 C 12,2 C 8,9 C 73 % 1029,1 hPa 0,0 l/m 2 min 0 min 136 W/m 3,2 km/h (1 Bft) 97,87 %
23.11.2020 15:00 10,6 C 12,8 C 9,5 C 73 % 1029,1 hPa 0,0 l/m 2 min 0 min 127 W/m 0,0 km/h (0 Bft) 97,87 %
23.11.2020 15:02 10,6 C 11,1 C 8,9 C 73 % 1029,0 hPa 0,0 l/m 0 min 0 min 69 W/m 3,2 km/h (1 Bft) 97,87 %
23.11.2020 15:04 10,6 C 11,1 C 8,4 C 73 % 1029,1 hPa 0,0 l/m 0 min 0 min 82 W/m 3,2 km/h (1 Bft) 97,87 %
23.11.2020 15:06 10,6 C 11,1 C 8,4 C 72 % 1029,0 hPa 0,0 l/m 2 min 0 min 141 W/m 3,2 km/h (1 Bft) 95,74 %
23.11.2020 15:08 10,6 C 11,7 C 8,4 C 72 % 1029,0 hPa 0,0 l/m 2 min 0 min 112 W/m 3,2 km/h (1 Bft) 97,83 %
23.11.2020 15:10 10,6 C 12,2 C 8,4 C 73 % 1029,0 hPa 0,0 l/m 2 min 0 min 131 W/m 0,0 km/h (0 Bft) 97,87 %
23.11.2020 15:12 10,6 C 11,7 C 7,8 C 72 % 1028,9 hPa 0,0 l/m 2 min 0 min 145 W/m 0,0 km/h (0 Bft) 95,74 %
23.11.2020 15:14 10,6 C 12,2 C 8,4 C 72 % 1028,8 hPa 0,0 l/m 2 min 0 min 101 W/m 0,0 km/h (0 Bft) 97,87 %
23.11.2020 15:16 10,6 C 11,7 C 7,8 C 72 % 1028,8 hPa 0,0 l/m 2 min 0 min 106 W/m 0,0 km/h (0 Bft) 97,87 %
23.11.2020 15:18 10,6 C 12,2 C 8,4 C 72 % 1028,8 hPa 0,0 l/m 2 min 0 min 126 W/m 0,0 km/h (0 Bft) 97,50 %
23.11.2020 15:20 10,6 C 12,2 C 7,8 C 71 % 1028,8 hPa 0,0 l/m 2 min 0 min 125 W/m 3,2 km/h (1 Bft) 95,74 %
23.11.2020 15:22 10,6 C 11,7 C 7,8 C 70 % 1028,7 hPa 0,0 l/m 2 min 0 min 120 W/m 6,4 km/h (2 Bft) 97,83 %
23.11.2020 15:24 10,6 C 11,7 C 7,8 C 69 % 1028,7 hPa 0,0 l/m 2 min 0 min 111 W/m 3,2 km/h (1 Bft) 97,87 %
23.11.2020 15:26 10,6 C 11,1 C 7,8 C 69 % 1028,6 hPa 0,0 l/m 2 min 0 min 104 W/m 3,2 km/h (1 Bft) 95,74 %
23.11.2020 15:28 10,5 C 10,6 C 7,8 C 69 % 1028,6 hPa 0,0 l/m 2 min 0 min 90 W/m 6,4 km/h (2 Bft) 97,87 %
23.11.2020 15:30 10,5 C 10,0 C 7,8 C 69 % 1028,6 hPa 0,0 l/m 2 min 0 min 92 W/m 6,4 km/h (2 Bft) 97,87 %
23.11.2020 15:32 10,5 C 10,0 C 7,8 C 69 % 1028,6 hPa 0,0 l/m 2 min 0 min 94 W/m 3,2 km/h (1 Bft) 100,00 %
23.11.2020 15:34 10,5 C 10,0 C 7,8 C 69 % 1028,6 hPa 0,0 l/m 2 min 0 min 94 W/m 3,2 km/h (1 Bft) 97,83 %
23.11.2020 15:36 10,4 C 10,0 C 7,8 C 70 % 1028,6 hPa 0,0 l/m 2 min 0 min 89 W/m 6,4 km/h (2 Bft) 100,00 %
23.11.2020 15:38 10,4 C 10,0 C 7,8 C 69 % 1028,7 hPa 0,0 l/m 2 min 0 min 85 W/m 12,9 km/h (3 Bft) 100,00 %
23.11.2020 15:40 10,3 C 10,6 C 7,8 C 69 % 1028,6 hPa 0,0 l/m 2 min 0 min 81 W/m 16,1 km/h (3 Bft) 100,00 %
23.11.2020 15:42 10,3 C 10,6 C 7,8 C 69 % 1028,6 hPa 0,0 l/m 2 min 0 min 76 W/m 6,4 km/h (2 Bft) 97,87 %
23.11.2020 15:44 10,3 C 10,6 C 7,8 C 69 % 1028,6 hPa 0,0 l/m 2 min 0 min 72 W/m 12,9 km/h (3 Bft) 100,00 %
23.11.2020 15:46 10,2 C 10,6 C 7,2 C 69 % 1028,6 hPa 0,0 l/m 2 min 0 min 69 W/m 6,4 km/h (2 Bft) 100,00 %
23.11.2020 15:48 10,1 C 10,0 C 7,2 C 69 % 1028,7 hPa 0,0 l/m 2 min 0 min 66 W/m 0,0 km/h (0 Bft) 100,00 %
23.11.2020 15:50 10,1 C 9,4 C 7,2 C 70 % 1028,7 hPa 0,0 l/m 2 min 0 min 62 W/m 0,0 km/h (0 Bft) 100,00 %
23.11.2020 15:52 10,1 C 9,4 C 7,2 C 70 % 1028,7 hPa 0,0 l/m 2 min 0 min 52 W/m 0,0 km/h (0 Bft) 100,00 %
23.11.2020 15:54 10,0 C 9,4 C 7,2 C 70 % 1028,7 hPa 0,0 l/m 0 min 0 min 36 W/m 12,9 km/h (3 Bft) 100,00 %
23.11.2020 15:56 10,0 C 9,4 C 7,2 C 70 % 1028,7 hPa 0,0 l/m 0 min 0 min 30 W/m 3,2 km/h (1 Bft) 97,87 %
23.11.2020 15:58 10,0 C 8,9 C 7,2 C 70 % 1028,7 hPa 0,0 l/m 0 min 0 min 28 W/m 0,0 km/h (0 Bft) 100,00 %
23.11.2020 16:00 10,0 C 8,9 C 7,2 C 70 % 1028,6 hPa 0,0 l/m 0 min 0 min 26 W/m 6,4 km/h (2 Bft) 100,00 %
23.11.2020 16:02 9,9 C 8,9 C 7,2 C 71 % 1028,6 hPa 0,0 l/m 0 min 0 min 26 W/m 3,2 km/h (1 Bft) 97,87 %
23.11.2020 16:04 9,9 C 8,3 C 6,7 C 71 % 1028,6 hPa 0,0 l/m 0 min 0 min 24 W/m 0,0 km/h (0 Bft) 97,87 %
23.11.2020 16:06 9,9 C 8,3 C 6,7 C 71 % 1028,6 hPa 0,0 l/m 0 min 0 min 22 W/m 0,0 km/h (0 Bft) 100,00 %
23.11.2020 16:08 9,8 C 8,3 C 6,7 C 72 % 1028,5 hPa 0,0 l/m 0 min 0 min 20 W/m 0,0 km/h (0 Bft) 100,00 %
23.11.2020 16:10 9,8 C 8,3 C 6,7 C 72 % 1028,5 hPa 0,0 l/m 0 min 0 min 18 W/m 6,4 km/h (2 Bft) 100,00 %
23.11.2020 16:12 9,7 C 8,3 C 6,7 C 72 % 1028,5 hPa 0,0 l/m 0 min 0 min 17 W/m 3,2 km/h (1 Bft) 97,87 %
23.11.2020 16:14 9,6 C 8,3 C 6,7 C 72 % 1028,5 hPa 0,0 l/m 0 min 0 min 15 W/m 0,0 km/h (0 Bft) 95,74 %
23.11.2020 16:16 9,6 C 8,3 C 6,1 C 73 % 1028,5 hPa 0,0 l/m 0 min 0 min 14 W/m 0,0 km/h (0 Bft) 95,74 %
23.11.2020 16:18 9,5 C 8,3 C 6,1 C 73 % 1028,5 hPa 0,0 l/m 0 min 0 min 14 W/m 0,0 km/h (0 Bft) 95,74 %
23.11.2020 16:20 9,5 C 7,8 C 6,1 C 73 % 1028,5 hPa 0,0 l/m 0 min 0 min 12 W/m 0,0 km/h (0 Bft) 61,54 %
23.11.2020 16:22 9,4 C 7,8 C 5,6 C 74 % 1028,5 hPa 0,0 l/m 0 min 0 min 12 W/m 0,0 km/h (0 Bft) 95,74 %
23.11.2020 16:24 9,4 C 7,8 C 5,6 C 74 % 1028,4 hPa 0,0 l/m 0 min 0 min 11 W/m 0,0 km/h (0 Bft) 95,74 %
23.11.2020 16:26 9,4 C 7,8 C 5,6 C 74 % 1028,4 hPa 0,0 l/m 0 min 0 min 10 W/m 0,0 km/h (0 Bft) 95,74 %
23.11.2020 16:28 9,3 C 7,8 C 5,6 C 74 % 1028,4 hPa 0,0 l/m 0 min 0 min 9 W/m 0,0 km/h (0 Bft) 95,65 %
23.11.2020 16:30 9,3 C 7,8 C 5,6 C 74 % 1028,4 hPa 0,0 l/m 0 min 0 min 7 W/m 0,0 km/h (0 Bft) 95,74 %
23.11.2020 16:32 9,2 C 7,8 C 5,0 C 75 % 1028,5 hPa 0,0 l/m 0 min 0 min 7 W/m 0,0 km/h (0 Bft) 94,29 %
23.11.2020 16:34 9,1 C 7,8 C 5,0 C 75 % 1028,5 hPa 0,0 l/m 0 min 0 min 6 W/m 0,0 km/h (0 Bft) 95,74 %
23.11.2020 16:36 9,1 C 7,8 C 5,0 C 75 % 1028,6 hPa 0,0 l/m 0 min 0 min 5 W/m 0,0 km/h (0 Bft) 95,74 %
23.11.2020 16:38 9,0 C 7,2 C 5,0 C 75 % 1028,6 hPa 0,0 l/m 0 min 0 min 5 W/m 0,0 km/h (0 Bft) 93,62 %
23.11.2020 16:40 9,0 C 7,2 C 5,0 C 75 % 1028,6 hPa 0,0 l/m 0 min 0 min 1 W/m 0,0 km/h (0 Bft) 95,74 %
23.11.2020 16:42 9,0 C 7,2 C 4,5 C 76 % 1028,6 hPa 0,0 l/m 0 min 0 min 0 W/m 0,0 km/h (0 Bft) 95,74 %
23.11.2020 16:44 8,9 C 7,2 C 4,5 C 76 % 1028,6 hPa 0,0 l/m 0 min 0 min 0 W/m 0,0 km/h (0 Bft) 93,48 %
23.11.2020 16:46 8,9 C 7,2 C 4,5 C 76 % 1028,6 hPa 0,0 l/m 0 min 0 min 0 W/m 0,0 km/h (0 Bft) 95,74 %
23.11.2020 16:48 8,8 C 7,2 C 4,5 C 76 % 1028,6 hPa 0,0 l/m 0 min 0 min 0 W/m 0,0 km/h (0 Bft) 97,87 %
23.11.2020 16:50 8,8 C 7,2 C 4,5 C 76 % 1028,7 hPa 0,0 l/m 0 min 0 min 0 W/m 0,0 km/h (0 Bft) 97,87 %
23.11.2020 16:52 8,7 C 7,2 C 4,5 C 77 % 1028,6 hPa 0,0 l/m 0 min 0 min 0 W/m 0,0 km/h (0 Bft) 97,87 %
23.11.2020 16:54 8,6 C 6,7 C 3,9 C 77 % 1028,5 hPa 0,0 l/m 0 min 0 min 0 W/m 0,0 km/h (0 Bft) 97,83 %
23.11.2020 16:56 8,6 C 6,7 C 3,9 C 77 % 1028,6 hPa 0,0 l/m 0 min 0 min 0 W/m 0,0 km/h (0 Bft) 95,74 %
23.11.2020 16:58 8,5 C 6,7 C 3,9 C 77 % 1028,6 hPa 0,0 l/m 0 min 0 min 0 W/m 0,0 km/h (0 Bft) 97,87 %
23.11.2020 17:00 8,5 C 6,7 C 3,9 C 77 % 1028,6 hPa 0,0 l/m 0 min 0 min 0 W/m 0,0 km/h (0 Bft) 97,87 %
23.11.2020 17:02 8,5 C 6,1 C 3,9 C 77 % 1028,6 hPa 0,0 l/m 0 min 0 min 0 W/m 0,0 km/h (0 Bft) 95,74 %
23.11.2020 17:04 8,4 C 6,1 C 3,9 C 78 % 1028,6 hPa 0,0 l/m 0 min 0 min 0 W/m 0,0 km/h (0 Bft) 95,74 %
23.11.2020 17:06 8,3 C 6,1 C 3,9 C 78 % 1028,6 hPa 0,0 l/m 0 min 0 min 0 W/m 0,0 km/h (0 Bft) 97,83 %
23.11.2020 17:08 8,3 C 6,1 C 3,4 C 78 % 1028,6 hPa 0,0 l/m 0 min 0 min 0 W/m 0,0 km/h (0 Bft) 97,87 %
23.11.2020 17:10 8,2 C 6,1 C 3,4 C 78 % 1028,6 hPa 0,0 l/m 0 min 0 min 0 W/m 0,0 km/h (0 Bft) 95,74 %
23.11.2020 17:12 8,1 C 6,1 C 3,4 C 79 % 1028,6 hPa 0,0 l/m 0 min 0 min 0 W/m 0,0 km/h (0 Bft) 97,87 %
23.11.2020 17:14 8,0 C 6,1 C 3,4 C 79 % 1028,7 hPa 0,0 l/m 0 min 0 min 0 W/m 0,0 km/h (0 Bft) 97,87 %
23.11.2020 17:16 8,0 C 5,6 C 3,4 C 79 % 1028,7 hPa 0,0 l/m 0 min 0 min 0 W/m 0,0 km/h (0 Bft) 97,87 %
23.11.2020 17:18 7,9 C 5,6 C 3,4 C 79 % 1028,7 hPa 0,0 l/m 0 min 0 min 0 W/m 0,0 km/h (0 Bft) 95,65 %
23.11.2020 17:20 7,8 C 5,6 C 3,4 C 79 % 1028,7 hPa 0,0 l/m 0 min 0 min 0 W/m 0,0 km/h (0 Bft) 97,87 %
23.11.2020 17:22 7,8 C 5,0 C 3,4 C 79 % 1028,7 hPa 0,0 l/m 0 min 0 min 0 W/m 0,0 km/h (0 Bft) 98,31 %
23.11.2020 17:24 7,6 C 5,0 C 2,8 C 80 % 1028,6 hPa 0,0 l/m 0 min 0 min 0 W/m 0,0 km/h (0 Bft) 95,74 %
23.11.2020 17:26 7,6 C 5,6 C 2,8 C 80 % 1028,6 hPa 0,0 l/m 0 min 0 min 0 W/m 0,0 km/h (0 Bft) 97,83 %
23.11.2020 17:28 7,5 C 5,6 C 2,8 C 80 % 1028,7 hPa 0,0 l/m 0 min 0 min 0 W/m 0,0 km/h (0 Bft) 97,87 %
23.11.2020 17:30 7,4 C 5,6 C 2,8 C 81 % 1028,7 hPa 0,0 l/m 0 min 0 min 0 W/m 0,0 km/h (0 Bft) 97,87 %
23.11.2020 17:32 7,4 C 5,6 C 2,8 C 81 % 1028,7 hPa 0,0 l/m 0 min 0 min 0 W/m 0,0 km/h (0 Bft) 97,87 %
23.11.2020 17:34 7,3 C 5,6 C 2,8 C 81 % 1028,7 hPa 0,0 l/m 0 min 0 min 0 W/m 0,0 km/h (0 Bft) 97,87 %
23.11.2020 17:36 7,3 C 5,6 C 2,8 C 82 % 1028,7 hPa 0,0 l/m 0 min 0 min 0 W/m 0,0 km/h (0 Bft) 97,87 %
23.11.2020 17:38 7,2 C 5,0 C 2,8 C 82 % 1028,7 hPa 0,0 l/m 0 min 0 min 0 W/m 0,0 km/h (0 Bft) 97,83 %
23.11.2020 17:40 7,1 C 5,0 C 2,8 C 82 % 1028,7 hPa 0,0 l/m 0 min 0 min 0 W/m 0,0 km/h (0 Bft) 93,62 %
23.11.2020 17:42 7,0 C 5,0 C 2,8 C 82 % 1028,7 hPa 0,0 l/m 0 min 0 min 0 W/m 0,0 km/h (0 Bft) 97,87 %
23.11.2020 17:44 7,0 C 4,4 C 2,8 C 82 % 1028,7 hPa 0,0 l/m 0 min 0 min 0 W/m 0,0 km/h (0 Bft) 53,33 %
23.11.2020 17:46 6,9 C 4,4 C 2,8 C 82 % 1028,8 hPa 0,0 l/m 0 min 0 min 0 W/m 0,0 km/h (0 Bft) 97,87 %
23.11.2020 17:48 6,9 C 4,4 C 2,2 C 82 % 1028,8 hPa 0,0 l/m 0 min 0 min 0 W/m 0,0 km/h (0 Bft) 97,87 %
23.11.2020 17:50 6,8 C 3,9 C 2,2 C 83 % 1028,8 hPa 0,0 l/m 0 min 0 min 0 W/m 0,0 km/h (0 Bft) 97,83 %
23.11.2020 17:52 6,6 C 3,9 C 2,2 C 82 % 1028,8 hPa 0,0 l/m 0 min 0 min 0 W/m 0,0 km/h (0 Bft) 97,87 %
23.11.2020 17:54 6,6 C 3,9 C 2,2 C 83 % 1028,9 hPa 0,0 l/m 0 min 0 min 0 W/m 0,0 km/h (0 Bft) 97,87 %
23.11.2020 17:56 6,5 C 3,9 C 2,2 C 83 % 1028,9 hPa 0,0 l/m 0 min 0 min 0 W/m 0,0 km/h (0 Bft) 95,74 %
23.11.2020 17:58 6,4 C 3,9 C 2,2 C 83 % 1029,0 hPa 0,0 l/m 0 min 0 min 0 W/m 0,0 km/h (0 Bft) 93,62 %
23.11.2020 18:00 6,4 C 3,9 C 2,2 C 83 % 1028,9 hPa 0,0 l/m 0 min 0 min 0 W/m 0,0 km/h (0 Bft) 97,87 %
23.11.2020 18:02 6,3 C 3,9 C 2,2 C 84 % 1029,0 hPa 0,0 l/m 0 min 0 min 0 W/m 0,0 km/h (0 Bft) 97,83 %
23.11.2020 18:04 6,3 C 3,9 C 2,2 C 84 % 1029,0 hPa 0,0 l/m 0 min 0 min 0 W/m 0,0 km/h (0 Bft) 97,87 %
23.11.2020 18:07 6,1 C 3,9 C 2,2 C 84 % 1029,0 hPa 0,0 l/m 0 min 0 min 0 W/m 0,0 km/h (0 Bft) 94,29 %
23.11.2020 18:08 6,1 C 3,9 C 2,2 C 84 % 1029,0 hPa 0,0 l/m 0 min 0 min 0 W/m 0,0 km/h (0 Bft) 100,00 %
23.11.2020 18:10 6,0 C 3,9 C 2,2 C 84 % 1028,9 hPa 0,0 l/m 0 min 0 min 0 W/m 0,0 km/h (0 Bft) 97,87 %
23.11.2020 18:12 6,0 C 3,9 C 2,2 C 85 % 1028,9 hPa 0,0 l/m 0 min 0 min 0 W/m 0,0 km/h (0 Bft) 97,87 %
23.11.2020 18:14 6,0 C 3,9 C 2,2 C 85 % 1028,9 hPa 0,0 l/m 0 min 0 min 0 W/m 0,0 km/h (0 Bft) 97,83 %
23.11.2020 18:16 5,9 C 3,9 C 2,2 C 84 % 1028,9 hPa 0,0 l/m 0 min 0 min 0 W/m 0,0 km/h (0 Bft) 91,49 %
23.11.2020 18:18 5,9 C 3,9 C 2,2 C 85 % 1029,0 hPa 0,0 l/m 0 min 0 min 0 W/m 0,0 km/h (0 Bft) 93,62 %
23.11.2020 18:20 5,9 C 3,9 C 2,2 C 85 % 1029,0 hPa 0,0 l/m 0 min 0 min 0 W/m 0,0 km/h (0 Bft) 89,36 %
23.11.2020 18:22 5,8 C 3,9 C 2,2 C 85 % 1029,0 hPa 0,0 l/m 0 min 0 min 0 W/m 0,0 km/h (0 Bft) 93,62 %
23.11.2020 18:24 5,8 C 3,9 C 2,2 C 85 % 1029,0 hPa 0,0 l/m 0 min 0 min 0 W/m 0,0 km/h (0 Bft) 95,45 %
23.11.2020 18:26 5,8 C 3,9 C 2,2 C 85 % 1029,0 hPa 0,0 l/m 0 min 0 min 0 W/m 0,0 km/h (0 Bft) 95,74 %
23.11.2020 18:28 5,7 C 3,9 C 2,2 C 85 % 1029,0 hPa 0,0 l/m 0 min 0 min 0 W/m 0,0 km/h (0 Bft) 95,74 %
23.11.2020 18:30 5,7 C 3,9 C 2,2 C 85 % 1029,0 hPa 0,0 l/m 0 min 0 min 0 W/m 0,0 km/h (0 Bft) 95,74 %
23.11.2020 18:32 5,7 C 3,9 C 2,2 C 85 % 1029,0 hPa 0,0 l/m 0 min 0 min 0 W/m 0,0 km/h (0 Bft) 97,92 %
23.11.2020 18:34 5,6 C 3,9 C 2,2 C 85 % 1029,0 hPa 0,0 l/m 0 min 0 min 0 W/m 0,0 km/h (0 Bft) 97,87 %
23.11.2020 18:36 5,6 C 3,9 C 2,2 C 85 % 1029,0 hPa 0,0 l/m 0 min 0 min 0 W/m 0,0 km/h (0 Bft) 97,83 %
23.11.2020 18:38 5,6 C 4,4 C 2,8 C 85 % 1029,0 hPa 0,0 l/m 0 min 0 min 0 W/m 0,0 km/h (0 Bft) 97,87 %
23.11.2020 18:40 5,5 C 4,4 C 2,8 C 85 % 1029,0 hPa 0,0 l/m 0 min 0 min 0 W/m 0,0 km/h (0 Bft) 97,87 %
23.11.2020 18:42 5,5 C 4,4 C 2,8 C 85 % 1029,0 hPa 0,0 l/m 0 min 0 min 0 W/m 0,0 km/h (0 Bft) 97,87 %
23.11.2020 18:44 5,5 C 4,4 C 2,8 C 85 % 1029,0 hPa 0,0 l/m 0 min 0 min 0 W/m 0,0 km/h (0 Bft) 100,00 %
23.11.2020 18:46 5,5 C 4,4 C 2,8 C 86 % 1029,1 hPa 0,0 l/m 0 min 0 min 0 W/m 0,0 km/h (0 Bft) 100,00 %
23.11.2020 18:48 5,5 C 4,4 C 3,4 C 86 % 1029,0 hPa 0,0 l/m 0 min 0 min 0 W/m 0,0 km/h (0 Bft) 100,00 %
23.11.2020 18:50 5,5 C 4,4 C 3,4 C 86 % 1029,0 hPa 0,0 l/m 0 min 0 min 0 W/m 0,0 km/h (0 Bft) 100,00 %
23.11.2020 18:52 5,4 C 4,4 C 3,4 C 86 % 1029,1 hPa 0,0 l/m 0 min 0 min 0 W/m 0,0 km/h (0 Bft) 100,00 %
23.11.2020 18:54 5,4 C 4,4 C 3,4 C 86 % 1029,0 hPa 0,0 l/m 0 min 0 min 0 W/m 0,0 km/h (0 Bft) 100,00 %
23.11.2020 18:56 5,4 C 5,0 C 3,4 C 87 % 1029,0 hPa 0,0 l/m 0 min 0 min 0 W/m 0,0 km/h (0 Bft) 97,87 %
23.11.2020 18:58 5,4 C 5,0 C 3,4 C 87 % 1028,9 hPa 0,0 l/m 0 min 0 min 0 W/m 0,0 km/h (0 Bft) 100,00 %
23.11.2020 19:00 5,4 C 5,0 C 3,4 C 87 % 1029,0 hPa 0,0 l/m 0 min 0 min 0 W/m 0,0 km/h (0 Bft) 100,00 %
23.11.2020 19:02 5,4 C 5,0 C 3,4 C 87 % 1028,9 hPa 0,0 l/m 0 min 0 min 0 W/m 0,0 km/h (0 Bft) 100,00 %
23.11.2020 19:04 5,4 C 5,0 C 3,4 C 87 % 1029,0 hPa 0,0 l/m 0 min 0 min 0 W/m 0,0 km/h (0 Bft) 100,00 %
23.11.2020 19:06 5,4 C 5,0 C 3,9 C 88 % 1029,0 hPa 0,0 l/m 0 min 0 min 0 W/m 0,0 km/h (0 Bft) 95,74 %
23.11.2020 19:08 5,5 C 5,0 C 3,9 C 88 % 1029,0 hPa 0,0 l/m 0 min 0 min 0 W/m 0,0 km/h (0 Bft) 100,00 %
23.11.2020 19:10 5,5 C 5,0 C 3,9 C 88 % 1029,0 hPa 0,0 l/m 0 min 0 min 0 W/m 0,0 km/h (0 Bft) 100,00 %
23.11.2020 19:12 5,5 C 5,6 C 3,9 C 88 % 1029,0 hPa 0,0 l/m 0 min 0 min 0 W/m 0,0 km/h (0 Bft) 100,00 %
23.11.2020 19:14 5,5 C 5,6 C 3,9 C 89 % 1029,0 hPa 0,0 l/m 0 min 0 min 0 W/m 0,0 km/h (0 Bft) 97,87 %
23.11.2020 19:16 5,5 C 5,6 C 3,9 C 89 % 1029,0 hPa 0,0 l/m 0 min 0 min 0 W/m 0,0 km/h (0 Bft) 100,00 %
23.11.2020 19:18 5,5 C 5,0 C 3,9 C 89 % 1029,0 hPa 0,0 l/m 0 min 0 min 0 W/m 0,0 km/h (0 Bft) 97,87 %
23.11.2020 19:20 5,5 C 5,0 C 3,9 C 89 % 1028,9 hPa 0,0 l/m 0 min 0 min 0 W/m 0,0 km/h (0 Bft) 100,00 %
23.11.2020 19:22 5,5 C 5,0 C 3,9 C 89 % 1028,9 hPa 0,0 l/m 0 min 0 min 0 W/m 0,0 km/h (0 Bft) 100,00 %
23.11.2020 19:24 5,5 C 5,0 C 3,4 C 89 % 1028,9 hPa 0,0 l/m 0 min 0 min 0 W/m 0,0 km/h (0 Bft) 100,00 %
23.11.2020 19:26 5,5 C 5,0 C 3,4 C 89 % 1028,9 hPa 0,0 l/m 0 min 0 min 0 W/m 0,0 km/h (0 Bft) 97,37 %
23.11.2020 19:28 5,5 C 5,0 C 3,4 C 89 % 1029,0 hPa 0,0 l/m 0 min 0 min 0 W/m 0,0 km/h (0 Bft) 100,00 %
23.11.2020 19:30 5,5 C 5,0 C 3,4 C 89 % 1029,0 hPa 0,0 l/m 0 min 0 min 0 W/m 0,0 km/h (0 Bft) 97,87 %
23.11.2020 19:32 5,5 C 5,0 C 3,4 C 89 % 1029,1 hPa 0,0 l/m 0 min 0 min 0 W/m 0,0 km/h (0 Bft) 97,87 %
23.11.2020 19:34 5,5 C 5,0 C 3,4 C 89 % 1029,1 hPa 0,0 l/m 0 min 0 min 0 W/m 0,0 km/h (0 Bft) 100,00 %
23.11.2020 19:36 5,5 C 5,0 C 3,4 C 89 % 1029,0 hPa 0,0 l/m 0 min 0 min 0 W/m 0,0 km/h (0 Bft) 100,00 %
23.11.2020 19:38 5,5 C 5,0 C 3,4 C 89 % 1028,9 hPa 0,0 l/m 0 min 0 min 0 W/m 0,0 km/h (0 Bft) 100,00 %
23.11.2020 19:40 5,5 C 5,0 C 3,4 C 89 % 1028,9 hPa 0,0 l/m 0 min 0 min 0 W/m 0,0 km/h (0 Bft) 100,00 %
23.11.2020 19:42 5,5 C 5,0 C 3,9 C 89 % 1028,9 hPa 0,0 l/m 0 min 0 min 0 W/m 0,0 km/h (0 Bft) 100,00 %
23.11.2020 19:44 5,5 C 5,0 C 3,9 C 90 % 1028,9 hPa 0,0 l/m 0 min 0 min 0 W/m 0,0 km/h (0 Bft) 100,00 %
23.11.2020 19:46 5,6 C 5,0 C 3,9 C 90 % 1029,0 hPa 0,0 l/m 0 min 0 min 0 W/m 0,0 km/h (0 Bft) 97,87 %
23.11.2020 19:48 5,5 C 5,0 C 3,9 C 90 % 1028,9 hPa 0,0 l/m 0 min 0 min 0 W/m 0,0 km/h (0 Bft) 100,00 %
23.11.2020 19:50 5,5 C 5,0 C 3,9 C 90 % 1029,0 hPa 0,0 l/m 0 min 0 min 0 W/m 0,0 km/h (0 Bft) 100,00 %
23.11.2020 19:52 5,5 C 5,0 C 3,9 C 90 % 1028,9 hPa 0,0 l/m 0 min 0 min 0 W/m 0,0 km/h (0 Bft) 97,87 %
23.11.2020 19:54 5,5 C 5,0 C 3,9 C 90 % 1028,8 hPa 0,0 l/m 0 min 0 min 0 W/m 0,0 km/h (0 Bft) 100,00 %
23.11.2020 19:56 5,5 C 5,0 C 3,9 C 90 % 1028,8 hPa 0,0 l/m 0 min 0 min 0 W/m 0,0 km/h (0 Bft) 100,00 %
23.11.2020 19:58 5,5 C 5,0 C 3,4 C 90 % 1028,8 hPa 0,0 l/m 0 min 0 min 0 W/m 0,0 km/h (0 Bft) 100,00 %
23.11.2020 20:00 5,5 C 5,0 C 3,9 C 90 % 1028,8 hPa 0,0 l/m 0 min 0 min 0 W/m 0,0 km/h (0 Bft) 97,87 %
23.11.2020 20:02 5,5 C 5,0 C 3,9 C 90 % 1028,8 hPa 0,0 l/m 0 min 0 min 0 W/m 0,0 km/h (0 Bft) 98,11 %
23.11.2020 20:04 5,5 C 5,0 C 3,9 C 90 % 1028,8 hPa 0,0 l/m 0 min 0 min 0 W/m 0,0 km/h (0 Bft) 100,00 %
23.11.2020 20:06 5,5 C 5,0 C 3,9 C 90 % 1028,8 hPa 0,0 l/m 0 min 0 min 0 W/m 0,0 km/h (0 Bft) 100,00 %
23.11.2020 20:08 5,5 C 5,0 C 3,4 C 90 % 1028,9 hPa 0,0 l/m 0 min 0 min 0 W/m 0,0 km/h (0 Bft) 97,87 %
23.11.2020 20:10 5,5 C 4,4 C 3,4 C 90 % 1028,8 hPa 0,0 l/m 0 min 0 min 0 W/m 0,0 km/h (0 Bft) 97,83 %
23.11.2020 20:12 5,5 C 4,4 C 3,4 C 90 % 1028,8 hPa 0,0 l/m 0 min 0 min 0 W/m 0,0 km/h (0 Bft) 97,87 %
23.11.2020 20:14 5,5 C 4,4 C 3,4 C 90 % 1028,8 hPa 0,0 l/m 0 min 0 min 0 W/m 0,0 km/h (0 Bft) 93,62 %
23.11.2020 20:16 5,5 C 4,4 C 3,4 C 90 % 1028,8 hPa 0,0 l/m 0 min 0 min 0 W/m 0,0 km/h (0 Bft) 97,87 %
23.11.2020 20:18 5,5 C 4,4 C 3,4 C 90 % 1028,8 hPa 0,0 l/m 0 min 0 min 0 W/m 0,0 km/h (0 Bft) 97,87 %
23.11.2020 20:20 5,5 C 4,4 C 3,4 C 90 % 1028,9 hPa 0,0 l/m 0 min 0 min 0 W/m 0,0 km/h (0 Bft) 97,83 %
23.11.2020 20:22 5,4 C 4,4 C 3,4 C 90 % 1028,8 hPa 0,0 l/m 0 min 0 min 0 W/m 0,0 km/h (0 Bft) 97,87 %
23.11.2020 20:24 5,4 C 4,4 C 3,4 C 90 % 1028,8 hPa 0,0 l/m 0 min 0 min 0 W/m 0,0 km/h (0 Bft) 97,87 %
23.11.2020 20:26 5,4 C 4,4 C 3,4 C 90 % 1028,8 hPa 0,0 l/m 0 min 0 min 0 W/m 0,0 km/h (0 Bft) 97,87 %
23.11.2020 20:28 5,4 C 4,4 C 3,4 C 90 % 1028,9 hPa 0,0 l/m 0 min 0 min 0 W/m 0,0 km/h (0 Bft) 97,50 %
23.11.2020 20:30 5,4 C 4,4 C 3,4 C 90 % 1028,8 hPa 0,0 l/m 0 min 0 min 0 W/m 0,0 km/h (0 Bft) 97,87 %
23.11.2020 20:32 5,4 C 4,4 C 3,4 C 90 % 1028,9 hPa 0,0 l/m 0 min 0 min 0 W/m 0,0 km/h (0 Bft) 97,87 %
23.11.2020 20:34 5,4 C 3,9 C 3,4 C 90 % 1028,8 hPa 0,0 l/m 0 min 0 min 0 W/m 0,0 km/h (0 Bft) 100,00 %
23.11.2020 20:36 5,4 C 3,9 C 2,8 C 90 % 1028,9 hPa 0,0 l/m 0 min 0 min 0 W/m 0,0 km/h (0 Bft) 97,83 %
23.11.2020 20:38 5,3 C 3,9 C 2,8 C 90 % 1028,8 hPa 0,0 l/m 0 min 0 min 0 W/m 0,0 km/h (0 Bft) 97,87 %
23.11.2020 20:40 5,3 C 3,9 C 2,8 C 90 % 1028,8 hPa 0,0 l/m 0 min 0 min 0 W/m 0,0 km/h (0 Bft) 97,87 %
23.11.2020 20:42 5,3 C 3,9 C 2,8 C 90 % 1028,7 hPa 0,0 l/m 0 min 0 min 0 W/m 0,0 km/h (0 Bft) 95,74 %
23.11.2020 20:44 5,3 C 3,9 C 2,8 C 90 % 1028,7 hPa 0,0 l/m 0 min 0 min 0 W/m 0,0 km/h (0 Bft) 95,74 %
23.11.2020 20:46 5,3 C 3,9 C 2,8 C 90 % 1028,8 hPa 0,0 l/m 0 min 0 min 0 W/m 0,0 km/h (0 Bft) 97,87 %
23.11.2020 20:48 5,2 C 3,9 C 2,8 C 90 % 1028,7 hPa 0,0 l/m 0 min 0 min 0 W/m 0,0 km/h (0 Bft) 95,65 %
23.11.2020 20:50 5,2 C 3,9 C 2,8 C 90 % 1028,7 hPa 0,0 l/m 0 min 0 min 0 W/m 0,0 km/h (0 Bft) 97,87 %
23.11.2020 20:52 5,1 C 3,9 C 2,8 C 90 % 1028,7 hPa 0,0 l/m 0 min 0 min 0 W/m 0,0 km/h (0 Bft) 97,87 %
23.11.2020 20:54 5,1 C 3,9 C 2,8 C 90 % 1028,7 hPa 0,0 l/m 0 min 0 min 0 W/m 0,0 km/h (0 Bft) 97,87 %
23.11.2020 20:56 5,1 C 3,9 C 2,8 C 90 % 1028,6 hPa 0,0 l/m 0 min 0 min 0 W/m 0,0 km/h (0 Bft) 95,74 %
23.11.2020 20:58 5,1 C 3,9 C 2,8 C 90 % 1028,7 hPa 0,0 l/m 0 min 0 min 0 W/m 0,0 km/h (0 Bft) 97,87 %
23.11.2020 21:00 5,0 C 3,9 C 2,8 C 90 % 1028,6 hPa 0,0 l/m 0 min 0 min 0 W/m 0,0 km/h (0 Bft) 97,83 %
23.11.2020 21:02 5,0 C 3,9 C 2,8 C 90 % 1028,6 hPa 0,0 l/m 0 min 0 min 0 W/m 0,0 km/h (0 Bft) 97,87 %
23.11.2020 21:04 5,0 C 3,9 C 2,8 C 90 % 1028,6 hPa 0,0 l/m 0 min 0 min 0 W/m 0,0 km/h (0 Bft) 97,87 %
23.11.2020 21:06 5,0 C 3,9 C 2,8 C 91 % 1028,6 hPa 0,0 l/m 0 min 0 min 0 W/m 0,0 km/h (0 Bft) 97,87 %
23.11.2020 21:08 5,0 C 3,9 C 2,8 C 91 % 1028,6 hPa 0,0 l/m 0 min 0 min 0 W/m 0,0 km/h (0 Bft) 97,87 %
23.11.2020 21:10 4,9 C 3,9 C 3,4 C 91 % 1028,6 hPa 0,0 l/m 0 min 0 min 0 W/m 0,0 km/h (0 Bft) 97,83 %
23.11.2020 21:12 4,9 C 3,9 C 3,4 C 91 % 1028,6 hPa 0,0 l/m 0 min 0 min 0 W/m 0,0 km/h (0 Bft) 91,49 %
23.11.2020 21:14 4,9 C 4,4 C 3,4 C 91 % 1028,6 hPa 0,0 l/m 0 min 0 min 0 W/m 0,0 km/h (0 Bft) 97,87 %
23.11.2020 21:16 4,9 C 4,4 C 3,4 C 91 % 1028,6 hPa 0,0 l/m 0 min 0 min 0 W/m 0,0 km/h (0 Bft) 93,62 %
23.11.2020 21:18 4,9 C 4,4 C 3,4 C 91 % 1028,6 hPa 0,0 l/m 0 min 0 min 0 W/m 0,0 km/h (0 Bft) 95,74 %
23.11.2020 21:20 4,9 C 4,4 C 3,4 C 91 % 1028,6 hPa 0,0 l/m 0 min 0 min 0 W/m 3,2 km/h (1 Bft) 96,23 %
23.11.2020 21:22 4,9 C 4,4 C 3,4 C 91 % 1028,6 hPa 0,0 l/m 0 min 0 min 0 W/m 0,0 km/h (0 Bft) 93,62 %
23.11.2020 21:24 4,9 C 4,4 C 3,4 C 92 % 1028,6 hPa 0,0 l/m 0 min 0 min 0 W/m 0,0 km/h (0 Bft) 96,00 %
23.11.2020 21:26 4,9 C 4,4 C 3,4 C 92 % 1028,5 hPa 0,0 l/m 0 min 0 min 0 W/m 0,0 km/h (0 Bft) 93,88 %
23.11.2020 21:28 4,9 C 4,4 C 3,4 C 92 % 1028,5 hPa 0,0 l/m 0 min 0 min 0 W/m 3,2 km/h (1 Bft) 94,29 %
23.11.2020 21:30 4,9 C 4,4 C 3,4 C 92 % 1028,5 hPa 0,0 l/m 0 min 0 min 0 W/m 3,2 km/h (1 Bft) 94,83 %
23.11.2020 21:32 4,9 C 4,4 C 3,4 C 92 % 1028,5 hPa 0,0 l/m 0 min 0 min 0 W/m 3,2 km/h (1 Bft) 91,67 %
23.11.2020 21:34 4,9 C 4,4 C 3,4 C 92 % 1028,5 hPa 0,0 l/m 0 min 0 min 0 W/m 0,0 km/h (0 Bft) 94,34 %
23.11.2020 21:36 4,9 C 4,4 C 3,4 C 92 % 1028,5 hPa 0,0 l/m 0 min 0 min 0 W/m 0,0 km/h (0 Bft) 94,00 %
23.11.2020 21:38 4,9 C 4,4 C 3,4 C 92 % 1028,5 hPa 0,0 l/m 0 min 0 min 0 W/m 0,0 km/h (0 Bft) 97,87 %
23.11.2020 21:40 4,9 C 4,4 C 3,4 C 92 % 1028,5 hPa 0,0 l/m 0 min 0 min 0 W/m 3,2 km/h (1 Bft) 97,87 %
23.11.2020 21:42 4,9 C 4,4 C 3,4 C 92 % 1028,6 hPa 0,0 l/m 0 min 0 min 0 W/m 3,2 km/h (1 Bft) 97,83 %
23.11.2020 21:44 4,9 C 3,9 C 3,4 C 92 % 1028,6 hPa 0,0 l/m 0 min 0 min 0 W/m 0,0 km/h (0 Bft) 95,92 %
23.11.2020 21:46 4,9 C 4,4 C 3,4 C 92 % 1028,6 hPa 0,0 l/m 0 min 0 min 0 W/m 0,0 km/h (0 Bft) 97,87 %
23.11.2020 21:48 4,9 C 3,9 C 3,4 C 93 % 1028,5 hPa 0,0 l/m 0 min 0 min 0 W/m 0,0 km/h (0 Bft) 97,14 %
23.11.2020 21:50 4,9 C 3,9 C 3,4 C 93 % 1028,6 hPa 0,0 l/m 0 min 0 min 0 W/m 0,0 km/h (0 Bft) 98,15 %
23.11.2020 21:52 4,9 C 3,9 C 3,4 C 93 % 1028,7 hPa 0,0 l/m 0 min 0 min 0 W/m 3,2 km/h (1 Bft) 95,74 %
23.11.2020 21:54 4,9 C 3,9 C 3,4 C 93 % 1028,7 hPa 0,0 l/m 0 min 0 min 0 W/m 0,0 km/h (0 Bft) 97,83 %
23.11.2020 21:56 4,8 C 3,9 C 3,4 C 93 % 1028,7 hPa 0,0 l/m 0 min 0 min 0 W/m 0,0 km/h (0 Bft) 98,00 %
23.11.2020 21:58 4,9 C 3,9 C 3,4 C 93 % 1028,7 hPa 0,0 l/m 0 min 0 min 0 W/m 0,0 km/h (0 Bft) 97,96 %
23.11.2020 22:00 4,8 C 3,9 C 3,4 C 93 % 1028,6 hPa 0,0 l/m 0 min 0 min 0 W/m 0,0 km/h (0 Bft) 95,74 %
23.11.2020 22:02 4,8 C 3,9 C 3,4 C 93 % 1028,7 hPa 0,0 l/m 0 min 0 min 0 W/m 0,0 km/h (0 Bft) 97,14 %
23.11.2020 22:04 4,8 C 3,9 C 3,4 C 93 % 1028,7 hPa 0,0 l/m 0 min 0 min 0 W/m 0,0 km/h (0 Bft) 97,87 %
23.11.2020 22:06 4,8 C 3,9 C 3,4 C 93 % 1028,7 hPa 0,0 l/m 0 min 0 min 0 W/m 0,0 km/h (0 Bft) 98,11 %
23.11.2020 22:08 4,8 C 3,9 C 3,4 C 93 % 1028,7 hPa 0,0 l/m 0 min 0 min 0 W/m 0,0 km/h (0 Bft) 96,00 %
23.11.2020 22:10 4,8 C 3,9 C 3,4 C 93 % 1028,7 hPa 0,0 l/m 0 min 0 min 0 W/m 0,0 km/h (0 Bft) 95,74 %
23.11.2020 22:12 4,8 C 3,9 C 3,4 C 93 % 1028,6 hPa 0,0 l/m 0 min 0 min 0 W/m 0,0 km/h (0 Bft) 95,92 %
23.11.2020 22:14 4,7 C 3,9 C 3,4 C 93 % 1028,6 hPa 0,0 l/m 0 min 0 min 0 W/m 0,0 km/h (0 Bft) 97,14 %
23.11.2020 22:16 4,7 C 3,9 C 3,4 C 93 % 1028,6 hPa 0,0 l/m 0 min 0 min 0 W/m 0,0 km/h (0 Bft) 98,15 %
23.11.2020 22:18 4,6 C 3,9 C 3,4 C 93 % 1028,6 hPa 0,0 l/m 0 min 0 min 0 W/m 0,0 km/h (0 Bft) 93,48 %
23.11.2020 22:20 4,6 C 3,9 C 3,4 C 93 % 1028,6 hPa 0,0 l/m 0 min 0 min 0 W/m 0,0 km/h (0 Bft) 96,00 %
23.11.2020 22:22 4,6 C 3,9 C 3,4 C 93 % 1028,6 hPa 0,0 l/m 0 min 0 min 0 W/m 0,0 km/h (0 Bft) 95,74 %
23.11.2020 22:24 4,6 C 3,9 C 3,4 C 93 % 1028,5 hPa 0,0 l/m 0 min 0 min 0 W/m 0,0 km/h (0 Bft) 95,92 %
23.11.2020 22:26 4,6 C 3,9 C 3,4 C 93 % 1028,6 hPa 0,0 l/m 0 min 0 min 0 W/m 3,2 km/h (1 Bft) 94,29 %
23.11.2020 22:28 4,6 C 3,9 C 3,4 C 93 % 1028,6 hPa 0,0 l/m 0 min 0 min 0 W/m 3,2 km/h (1 Bft) 96,23 %
23.11.2020 22:30 4,6 C 3,9 C 3,4 C 93 % 1028,6 hPa 0,0 l/m 0 min 0 min 0 W/m 3,2 km/h (1 Bft) 98,00 %
23.11.2020 22:32 4,6 C 3,9 C 3,4 C 94 % 1028,5 hPa 0,0 l/m 0 min 0 min 0 W/m 0,0 km/h (0 Bft) 95,65 %
23.11.2020 22:34 4,6 C 4,4 C 3,4 C 94 % 1028,5 hPa 0,0 l/m 0 min 0 min 0 W/m 3,2 km/h (1 Bft) 98,00 %
23.11.2020 22:36 4,6 C 4,4 C 3,4 C 94 % 1028,5 hPa 0,0 l/m 0 min 0 min 0 W/m 3,2 km/h (1 Bft) 95,74 %
23.11.2020 22:38 4,6 C 4,4 C 3,4 C 94 % 1028,5 hPa 0,0 l/m 0 min 0 min 0 W/m 3,2 km/h (1 Bft) 97,87 %
23.11.2020 22:40 4,6 C 4,4 C 3,4 C 94 % 1028,4 hPa 0,0 l/m 0 min 0 min 0 W/m 3,2 km/h (1 Bft) 94,74 %
23.11.2020 22:42 4,7 C 4,4 C 3,4 C 94 % 1028,4 hPa 0,0 l/m 0 min 0 min 0 W/m 3,2 km/h (1 Bft) 97,87 %
23.11.2020 22:44 4,7 C 4,4 C 3,4 C 94 % 1028,4 hPa 0,0 l/m 0 min 0 min 0 W/m 0,0 km/h (0 Bft) 97,83 %
23.11.2020 22:46 4,7 C 4,4 C 3,4 C 94 % 1028,4 hPa 0,0 l/m 0 min 0 min 0 W/m 6,4 km/h (2 Bft) 94,64 %
23.11.2020 22:48 4,7 C 4,4 C 3,9 C 94 % 1028,4 hPa 0,0 l/m 0 min 0 min 0 W/m 3,2 km/h (1 Bft) 93,62 %
23.11.2020 22:50 4,8 C 4,4 C 3,9 C 94 % 1028,3 hPa 0,0 l/m 0 min 0 min 0 W/m 3,2 km/h (1 Bft) 95,74 %
23.11.2020 22:52 4,8 C 4,4 C 3,9 C 94 % 1028,3 hPa 0,0 l/m 0 min 0 min 0 W/m 12,9 km/h (3 Bft) 97,83 %
23.11.2020 22:54 4,8 C 4,4 C 3,9 C 94 % 1028,3 hPa 0,0 l/m 0 min 0 min 0 W/m 6,4 km/h (2 Bft) 93,62 %
23.11.2020 22:56 4,8 C 4,4 C 3,9 C 94 % 1028,3 hPa 0,0 l/m 0 min 0 min 0 W/m 3,2 km/h (1 Bft) 100,00 %
23.11.2020 22:58 4,8 C 4,4 C 3,9 C 94 % 1028,3 hPa 0,0 l/m 0 min 0 min 0 W/m 3,2 km/h (1 Bft) 100,00 %
23.11.2020 23:00 4,8 C 4,4 C 3,9 C 94 % 1028,3 hPa 0,0 l/m 0 min 0 min 0 W/m 3,2 km/h (1 Bft) 100,00 %
23.11.2020 23:02 4,8 C 4,4 C 3,9 C 95 % 1028,3 hPa 0,0 l/m 0 min 0 min 0 W/m 3,2 km/h (1 Bft) 100,00 %
23.11.2020 23:04 4,8 C 4,4 C 3,9 C 95 % 1028,2 hPa 0,0 l/m 0 min 0 min 0 W/m 0,0 km/h (0 Bft) 100,00 %
23.11.2020 23:06 4,8 C 4,4 C 3,9 C 95 % 1028,1 hPa 0,0 l/m 0 min 0 min 0 W/m 3,2 km/h (1 Bft) 97,83 %
23.11.2020 23:08 4,8 C 4,4 C 3,9 C 95 % 1028,1 hPa 0,0 l/m 0 min 0 min 0 W/m 6,4 km/h (2 Bft) 100,00 %
23.11.2020 23:10 4,8 C 4,4 C 3,9 C 95 % 1028,1 hPa 0,0 l/m 0 min 0 min 0 W/m 3,2 km/h (1 Bft) 100,00 %
23.11.2020 23:12 4,9 C 4,4 C 3,4 C 95 % 1028,1 hPa 0,0 l/m 0 min 0 min 0 W/m 3,2 km/h (1 Bft) 100,00 %
23.11.2020 23:14 4,9 C 4,4 C 3,9 C 95 % 1028,0 hPa 0,0 l/m 0 min 0 min 0 W/m 3,2 km/h (1 Bft) 100,00 %
23.11.2020 23:16 4,9 C 4,4 C 3,9 C 95 % 1028,1 hPa 0,0 l/m 0 min 0 min 0 W/m 6,4 km/h (2 Bft) 100,00 %
23.11.2020 23:18 4,9 C 4,4 C 3,4 C 95 % 1028,0 hPa 0,0 l/m 0 min 0 min 0 W/m 3,2 km/h (1 Bft) 97,83 %
23.11.2020 23:20 4,9 C 4,4 C 3,4 C 95 % 1028,0 hPa 0,0 l/m 0 min 0 min 0 W/m 0,0 km/h (0 Bft) 97,87 %
23.11.2020 23:22 4,9 C 4,4 C 3,4 C 95 % 1027,9 hPa 0,0 l/m 0 min 0 min 0 W/m 3,2 km/h (1 Bft) 100,00 %
23.11.2020 23:24 4,9 C 3,9 C 3,4 C 95 % 1027,9 hPa 0,0 l/m 0 min 0 min 0 W/m 3,2 km/h (1 Bft) 100,00 %
23.11.2020 23:26 4,8 C 3,9 C 3,4 C 95 % 1027,9 hPa 0,0 l/m 0 min 0 min 0 W/m 3,2 km/h (1 Bft) 100,00 %
23.11.2020 23:28 4,8 C 3,9 C 3,4 C 95 % 1027,9 hPa 0,0 l/m 0 min 0 min 0 W/m 3,2 km/h (1 Bft) 100,00 %
23.11.2020 23:30 4,8 C 3,9 C 3,4 C 95 % 1027,8 hPa 0,0 l/m 0 min 0 min 0 W/m 3,2 km/h (1 Bft) 98,00 %
23.11.2020 23:32 4,8 C 3,9 C 3,4 C 95 % 1027,8 hPa 0,0 l/m 0 min 0 min 0 W/m 3,2 km/h (1 Bft) 100,00 %
23.11.2020 23:34 4,8 C 3,9 C 3,4 C 95 % 1027,8 hPa 0,0 l/m 0 min 0 min 0 W/m 0,0 km/h (0 Bft) 100,00 %
23.11.2020 23:36 4,8 C 3,9 C 3,4 C 95 % 1027,8 hPa 0,0 l/m 0 min 0 min 0 W/m 0,0 km/h (0 Bft) 100,00 %
23.11.2020 23:38 4,8 C 3,9 C 3,4 C 95 % 1027,8 hPa 0,0 l/m 0 min 0 min 0 W/m 6,4 km/h (2 Bft) 100,00 %
23.11.2020 23:40 4,8 C 3,9 C 3,4 C 95 % 1027,7 hPa 0,0 l/m 0 min 0 min 0 W/m 3,2 km/h (1 Bft) 100,00 %
23.11.2020 23:42 4,7 C 3,9 C 3,4 C 95 % 1027,7 hPa 0,0 l/m 0 min 0 min 0 W/m 6,4 km/h (2 Bft) 98,00 %
23.11.2020 23:44 4,7 C 3,9 C 3,4 C 95 % 1027,7 hPa 0,0 l/m 0 min 0 min 0 W/m 0,0 km/h (0 Bft) 93,62 %
23.11.2020 23:46 4,7 C 3,9 C 3,4 C 95 % 1027,7 hPa 0,0 l/m 0 min 0 min 0 W/m 0,0 km/h (0 Bft) 97,87 %
23.11.2020 23:48 4,7 C 3,9 C 3,4 C 95 % 1027,7 hPa 0,0 l/m 0 min 0 min 0 W/m 0,0 km/h (0 Bft) 97,87 %
23.11.2020 23:50 4,6 C 3,9 C 3,4 C 95 % 1027,8 hPa 0,0 l/m 0 min 0 min 0 W/m 3,2 km/h (1 Bft) 97,83 %
23.11.2020 23:52 4,6 C 3,9 C 3,4 C 95 % 1027,7 hPa 0,0 l/m 0 min 0 min 0 W/m 3,2 km/h (1 Bft) 97,87 %
23.11.2020 23:54 4,6 C 3,9 C 3,4 C 95 % 1027,8 hPa 0,0 l/m 0 min 0 min 0 W/m 3,2 km/h (1 Bft) 93,62 %
23.11.2020 23:56 4,6 C 3,9 C 3,4 C 95 % 1027,7 hPa 0,0 l/m 0 min 0 min 0 W/m 0,0 km/h (0 Bft) 91,49 %
23.11.2020 23:58 4,6 C 3,9 C 3,4 C 95 % 1027,7 hPa 0,0 l/m 0 min 0 min 0 W/m 3,2 km/h (1 Bft) 97,87 %
_ Min-Zeit 22:18 17:50 17:48 15:24 00:20 - - - - 00:00 17:44
Minimum _ 4,6 C 3,9 C 2,2 C 69 % 1026,3 hPa - - - - 0,0 km/h (0 Bft) 53,33 %
_ Max-Zeit 13:54 13:16 13:22 00:00 11:36 02:28 12:07 01:58 12:30 02:06 01:18
Maximum _ 10,9 C 17,8 C 16,1 C 99 % 1029,9 hPa 0,2 l/m 3 min 2 min 364 W/m 16,1 km/h
NO (3 Bft)
100,00 %
Durchschnitt _ 7,2 C 7,2 C 6,2 C 91 % 1028,3 hPa #0,2 l/m #4:20 h #6 min. 137 W/m 1,3 km/h (1 Bft) 97,27 %
© 2020 W. Hausmann